Time,TemperatureF,DewpointF,PressureIn,WindDirection,WindDirectionDegrees,WindSpeedMPH,WindSpeedGustMPH,Humidity,HourlyPrecipIn,Conditions,Clouds,dailyrainin,SoftwareType,DateUTC
2013-01-21 00:02:00,33.3,25.2,30.30,ENE,74,4.0,4.0,72,0.00,,,0.00,Wunderground v.1.15,2013-01-21 08:02:00,
2013-01-21 00:03:00,33.3,25.2,30.30,NE,51,4.0,5.0,72,0.00,,,0.00,Wunderground v.1.15,2013-01-21 08:03:00,
2013-01-21 00:04:00,33.4,25.3,30.30,ESE,105,4.0,5.0,72,0.00,,,0.00,Wunderground v.1.15,2013-01-21 08:04:00,
2013-01-21 00:08:00,33.3,25.2,30.30,NNE,30,4.0,6.0,72,0.00,,,0.00,Wunderground v.1.15,2013-01-21 08:08:00,
2013-01-21 00:09:00,33.3,25.2,30.30,ESE,117,5.0,6.0,72,0.00,,,0.00,Wunderground v.1.15,2013-01-21 08:09:00,
2013-01-21 00:10:00,33.3,25.2,30.30,East,79,4.0,6.0,72,0.00,,,0.00,Wunderground v.1.15,2013-01-21 08:10:00,
2013-01-21 00:14:00,33.3,25.2,30.30,ENE,77,3.0,5.0,72,0.00,,,0.00,Wunderground v.1.15,2013-01-21 08:14:00,
2013-01-21 00:15:00,33.2,25.1,30.30,ENE,70,3.0,6.0,72,0.00,,,0.00,Wunderground v.1.15,2013-01-21 08:15:00,
2013-01-21 00:18:00,33.2,25.1,30.30,NE,49,4.0,10.0,72,0.00,,,0.00,Wunderground v.1.15,2013-01-21 08:18:00,
2013-01-21 00:19:00,33.2,25.1,30.30,ENE,68,4.0,10.0,72,0.00,,,0.00,Wunderground v.1.15,2013-01-21 08:19:00,
2013-01-21 00:21:00,33.1,25.1,30.30,ENE,71,4.0,10.0,72,0.00,,,0.00,Wunderground v.1.15,2013-01-21 08:21:00,
2013-01-21 00:23:00,33.1,25.1,30.30,East,84,4.0,4.0,72,0.00,,,0.00,Wunderground v.1.15,2013-01-21 08:23:00,
2013-01-21 00:24:00,33.1,25.4,30.30,ESE,103,4.0,8.0,73,0.00,,,0.00,Wunderground v.1.15,2013-01-21 08:24:00,
2013-01-21 00:26:00,33.0,25.3,30.30,ENE,65,4.0,8.0,73,0.00,,,0.00,Wunderground v.1.15,2013-01-21 08:26:00,
2013-01-21 00:28:00,33.0,25.3,30.30,East,86,4.0,8.0,73,0.00,,,0.00,Wunderground v.1.15,2013-01-21 08:28:00,
2013-01-21 00:29:00,33.0,25.3,30.30,NE,56,4.0,8.0,73,0.00,,,0.00,Wunderground v.1.15,2013-01-21 08:29:00,
2013-01-21 00:30:00,33.1,25.4,30.30,East,81,4.0,8.0,73,0.00,,,0.00,Wunderground v.1.15,2013-01-21 08:30:00,
2013-01-21 00:32:00,33.1,25.4,30.30,East,100,4.0,4.0,73,0.00,,,0.00,Wunderground v.1.15,2013-01-21 08:32:00,
2013-01-21 00:35:00,33.1,25.4,30.30,NNE,12,4.0,4.0,73,0.00,,,0.00,Wunderground v.1.15,2013-01-21 08:35:00,
2013-01-21 00:36:00,33.1,25.4,30.30,ENE,77,4.0,4.0,73,0.00,,,0.00,Wunderground v.1.15,2013-01-21 08:36:00,
2013-01-21 00:37:00,33.1,25.4,30.30,ESE,117,4.0,6.0,73,0.00,,,0.00,Wunderground v.1.15,2013-01-21 08:37:00,
2013-01-21 00:40:00,33.1,25.1,30.30,ENE,58,4.0,6.0,72,0.00,,,0.00,Wunderground v.1.15,2013-01-21 08:40:00,
2013-01-21 00:42:00,33.1,25.1,30.30,NNE,16,4.0,6.0,72,0.00,,,0.00,Wunderground v.1.15,2013-01-21 08:42:00,
2013-01-21 00:47:00,33.1,25.1,30.30,NE,48,4.0,7.0,72,0.00,,,0.00,Wunderground v.1.15,2013-01-21 08:47:00,
2013-01-21 00:48:00,33.1,25.1,30.30,East,97,4.0,7.0,72,0.00,,,0.00,Wunderground v.1.15,2013-01-21 08:48:00,
2013-01-21 00:50:00,33.0,25.0,30.30,NE,43,4.0,7.0,72,0.00,,,0.00,Wunderground v.1.15,2013-01-21 08:50:00,
2013-01-21 00:54:00,33.0,25.0,30.30,SE,126,4.0,7.0,72,0.00,,,0.00,Wunderground v.1.15,2013-01-21 08:54:00,
2013-01-21 00:55:00,33.0,25.0,30.30,East,90,4.0,7.0,72,0.00,,,0.00,Wunderground v.1.15,2013-01-21 08:55:00,
2013-01-21 00:56:00,33.0,25.3,30.30,NNE,30,4.0,7.0,73,0.00,,,0.00,Wunderground v.1.15,2013-01-21 08:56:00,
2013-01-21 01:00:00,32.8,25.1,30.29,East,79,3.0,7.0,73,0.00,,,0.00,Wunderground v.1.15,2013-01-21 09:00:00,
2013-01-21 01:03:00,32.8,25.1,30.30,NE,54,3.0,3.0,73,0.00,,,0.00,Wunderground v.1.15,2013-01-21 09:03:00,
2013-01-21 01:04:00,32.8,25.1,30.30,East,89,2.0,4.0,73,0.00,,,0.00,Wunderground v.1.15,2013-01-21 09:04:00,
2013-01-21 01:05:00,32.8,25.1,30.30,ENE,68,2.0,4.0,73,0.00,,,0.00,Wunderground v.1.15,2013-01-21 09:05:00,
2013-01-21 01:06:00,32.8,25.1,30.30,NE,55,2.0,6.0,73,0.00,,,0.00,Wunderground v.1.15,2013-01-21 09:06:00,
2013-01-21 01:11:00,32.9,25.2,30.29,ENE,68,3.0,6.0,73,0.00,,,0.00,Wunderground v.1.15,2013-01-21 09:11:00,
2013-01-21 01:13:00,32.8,25.1,30.30,SE,127,3.0,4.0,73,0.00,,,0.00,Wunderground v.1.15,2013-01-21 09:13:00,
2013-01-21 01:14:00,32.8,25.1,30.29,NE,56,3.0,4.0,73,0.00,,,0.00,Wunderground v.1.15,2013-01-21 09:14:00,
2013-01-21 01:17:00,32.9,25.2,30.30,SE,138,3.0,6.0,73,0.00,,,0.00,Wunderground v.1.15,2013-01-21 09:17:00,
2013-01-21 01:20:00,32.9,25.2,30.30,East,94,3.0,6.0,73,0.00,,,0.00,Wunderground v.1.15,2013-01-21 09:20:00,
2013-01-21 01:21:00,32.8,25.1,30.30,ENE,61,3.0,6.0,73,0.00,,,0.00,Wunderground v.1.15,2013-01-21 09:21:00,
2013-01-21 01:24:00,32.8,25.1,30.30,ESE,110,3.0,3.0,73,0.00,,,0.00,Wunderground v.1.15,2013-01-21 09:24:00,
2013-01-21 01:25:00,32.7,25.0,30.30,East,92,2.0,3.0,73,0.00,,,0.00,Wunderground v.1.15,2013-01-21 09:25:00,
2013-01-21 01:29:00,32.7,25.0,30.30,ENE,77,2.0,3.0,73,0.00,,,0.00,Wunderground v.1.15,2013-01-21 09:29:00,
2013-01-21 01:31:00,32.7,25.0,30.30,ESE,116,2.0,7.0,73,0.00,,,0.00,Wunderground v.1.15,2013-01-21 09:31:00,
2013-01-21 01:35:00,32.7,25.0,30.30,NE,43,3.0,9.0,73,0.00,,,0.00,Wunderground v.1.15,2013-01-21 09:35:00,
2013-01-21 01:37:00,32.8,25.1,30.30,East,90,4.0,9.0,73,0.00,,,0.00,Wunderground v.1.15,2013-01-21 09:37:00,
2013-01-21 01:38:00,32.8,25.1,30.30,ENE,57,4.0,9.0,73,0.00,,,0.00,Wunderground v.1.15,2013-01-21 09:38:00,
2013-01-21 01:40:00,32.7,25.0,30.30,NE,54,4.0,9.0,73,0.00,,,0.00,Wunderground v.1.15,2013-01-21 09:40:00,
2013-01-21 01:42:00,32.7,25.0,30.30,NE,51,4.0,4.0,73,0.00,,,0.00,Wunderground v.1.15,2013-01-21 09:42:00,
2013-01-21 01:46:00,32.7,25.0,30.30,ENE,71,4.0,6.0,73,0.00,,,0.00,Wunderground v.1.15,2013-01-21 09:46:00,
2013-01-21 01:49:00,32.7,25.0,30.30,East,85,4.0,6.0,73,0.00,,,0.00,Wunderground v.1.15,2013-01-21 09:49:00,
2013-01-21 01:50:00,32.7,25.0,30.31,ESE,105,3.0,6.0,73,0.00,,,0.00,Wunderground v.1.15,2013-01-21 09:50:00,
2013-01-21 01:54:00,32.5,24.8,30.31,ESE,120,2.0,3.0,73,0.00,,,0.00,Wunderground v.1.15,2013-01-21 09:54:00,
2013-01-21 01:58:00,32.5,25.1,30.31,SSE,155,3.0,6.0,74,0.00,,,0.00,Wunderground v.1.15,2013-01-21 09:58:00,
2013-01-21 01:59:00,32.6,25.2,30.31,ESE,105,3.0,6.0,74,0.00,,,0.00,Wunderground v.1.15,2013-01-21 09:59:00,
2013-01-21 02:01:00,32.5,25.1,30.31,East,87,3.0,6.0,74,0.00,,,0.00,Wunderground v.1.15,2013-01-21 10:01:00,
2013-01-21 02:03:00,32.5,25.1,30.30,NE,43,3.0,9.0,74,0.00,,,0.00,Wunderground v.1.15,2013-01-21 10:03:00,
2013-01-21 02:04:00,32.5,24.8,30.30,ENE,61,4.0,9.0,73,0.00,,,0.00,Wunderground v.1.15,2013-01-21 10:04:00,
2013-01-21 02:06:00,32.5,24.8,30.30,East,85,4.0,9.0,73,0.00,,,0.00,Wunderground v.1.15,2013-01-21 10:06:00,
2013-01-21 02:08:00,32.5,24.8,30.30,ENE,65,4.0,9.0,73,0.00,,,0.00,Wunderground v.1.15,2013-01-21 10:08:00,
2013-01-21 02:10:00,32.5,24.8,30.30,NE,52,5.0,9.0,73,0.00,,,0.00,Wunderground v.1.15,2013-01-21 10:10:00,
2013-01-21 02:11:00,32.6,24.9,30.30,NE,51,4.0,9.0,73,0.00,,,0.00,Wunderground v.1.15,2013-01-21 10:11:00,
2013-01-21 02:16:00,32.6,24.9,30.30,ENE,58,5.0,8.0,73,0.00,,,0.00,Wunderground v.1.15,2013-01-21 10:16:00,
2013-01-21 02:18:00,32.6,24.9,30.30,SE,125,5.0,8.0,73,0.00,,,0.00,Wunderground v.1.15,2013-01-21 10:18:00,
2013-01-21 02:20:00,32.6,24.9,30.30,East,84,5.0,9.0,73,0.00,,,0.00,Wunderground v.1.15,2013-01-21 10:20:00,
2013-01-21 02:22:00,32.6,24.9,30.30,ESE,105,5.0,5.0,73,0.00,,,0.00,Wunderground v.1.15,2013-01-21 10:22:00,
2013-01-21 02:24:00,32.5,24.8,30.30,ENE,61,5.0,5.0,73,0.00,,,0.00,Wunderground v.1.15,2013-01-21 10:24:00,
2013-01-21 02:25:00,32.6,24.9,30.30,SSW,208,5.0,5.0,73,0.00,,,0.00,Wunderground v.1.15,2013-01-21 10:25:00,
2013-01-21 02:27:00,32.6,24.9,30.30,ESE,116,5.0,5.0,73,0.00,,,0.00,Wunderground v.1.15,2013-01-21 10:27:00,
2013-01-21 02:29:00,32.6,24.9,30.30,ESE,103,5.0,7.0,73,0.00,,,0.00,Wunderground v.1.15,2013-01-21 10:29:00,
2013-01-21 02:31:00,32.6,24.9,30.30,ESE,116,5.0,7.0,73,0.00,,,0.00,Wunderground v.1.15,2013-01-21 10:31:00,
2013-01-21 02:32:00,32.6,24.9,30.30,SE,125,5.0,5.0,73,0.00,,,0.00,Wunderground v.1.15,2013-01-21 10:32:00,
2013-01-21 02:33:00,32.6,24.9,30.30,NNE,23,5.0,5.0,73,0.00,,,0.00,Wunderground v.1.15,2013-01-21 10:33:00,
2013-01-21 02:35:00,32.5,24.8,30.30,ENE,65,4.0,5.0,73,0.00,,,0.00,Wunderground v.1.15,2013-01-21 10:35:00,
2013-01-21 02:36:00,32.5,24.8,30.30,ENE,75,4.0,5.0,73,0.00,,,0.00,Wunderground v.1.15,2013-01-21 10:36:00,
2013-01-21 02:39:00,32.5,24.8,30.30,ENE,78,3.0,5.0,73,0.00,,,0.00,Wunderground v.1.15,2013-01-21 10:39:00,
2013-01-21 02:40:00,32.5,24.8,30.30,NE,49,3.0,5.0,73,0.00,,,0.00,Wunderground v.1.15,2013-01-21 10:40:00,
2013-01-21 02:42:00,32.4,24.7,30.30,ENE,65,3.0,3.0,73,0.00,,,0.00,Wunderground v.1.15,2013-01-21 10:42:00,
2013-01-21 02:44:00,32.4,24.7,30.30,ENE,68,3.0,6.0,73,0.00,,,0.00,Wunderground v.1.15,2013-01-21 10:44:00,
2013-01-21 02:45:00,32.4,24.7,30.30,NE,47,3.0,6.0,73,0.00,,,0.00,Wunderground v.1.15,2013-01-21 10:45:00,
2013-01-21 02:47:00,32.3,24.6,30.30,ENE,58,3.0,6.0,73,0.00,,,0.00,Wunderground v.1.15,2013-01-21 10:47:00,
2013-01-21 02:50:00,32.3,24.6,30.30,SE,129,4.0,6.0,73,0.00,,,0.00,Wunderground v.1.15,2013-01-21 10:50:00,
2013-01-21 02:51:00,32.3,24.6,30.30,SE,127,3.0,6.0,73,0.00,,,0.00,Wunderground v.1.15,2013-01-21 10:51:00,
2013-01-21 02:52:00,32.3,24.6,30.30,East,89,3.0,3.0,73,0.00,,,0.00,Wunderground v.1.15,2013-01-21 10:52:00,
2013-01-21 02:56:00,32.2,24.8,30.30,NE,51,2.0,4.0,74,0.00,,,0.00,Wunderground v.1.15,2013-01-21 10:56:00,
2013-01-21 02:57:00,32.2,24.8,30.30,East,96,3.0,4.0,74,0.00,,,0.00,Wunderground v.1.15,2013-01-21 10:57:00,
2013-01-21 02:59:00,32.1,24.7,30.30,ENE,58,3.0,4.0,74,0.00,,,0.00,Wunderground v.1.15,2013-01-21 10:59:00,
2013-01-21 03:01:00,32.2,24.8,30.30,NNE,13,3.0,6.0,74,0.00,,,0.00,Wunderground v.1.15,2013-01-21 11:01:00,
2013-01-21 03:03:00,32.1,24.7,30.30,ENE,70,3.0,5.0,74,0.00,,,0.00,Wunderground v.1.15,2013-01-21 11:03:00,
2013-01-21 03:04:00,32.1,24.7,30.30,NE,50,3.0,5.0,74,0.00,,,0.00,Wunderground v.1.15,2013-01-21 11:04:00,
2013-01-21 03:09:00,32.0,24.6,30.29,ENE,77,3.0,5.0,74,0.00,,,0.00,Wunderground v.1.15,2013-01-21 11:09:00,
2013-01-21 03:10:00,32.0,24.6,30.29,ESE,108,2.0,5.0,74,0.00,,,0.00,Wunderground v.1.15,2013-01-21 11:10:00,
2013-01-21 03:11:00,32.0,24.6,30.29,East,84,2.0,5.0,74,0.00,,,0.00,Wunderground v.1.15,2013-01-21 11:11:00,
2013-01-21 03:12:00,31.9,24.6,30.29,NW,316,2.0,2.0,74,0.00,,,0.00,Wunderground v.1.15,2013-01-21 11:12:00,
2013-01-21 03:16:00,31.9,24.6,30.29,East,86,2.0,6.0,74,0.00,,,0.00,Wunderground v.1.15,2013-01-21 11:16:00,
2013-01-21 03:17:00,31.8,24.5,30.29,ENE,68,2.0,6.0,74,0.00,,,0.00,Wunderground v.1.15,2013-01-21 11:17:00,
2013-01-21 03:21:00,31.9,24.6,30.29,ENE,63,3.0,6.0,74,0.00,,,0.00,Wunderground v.1.15,2013-01-21 11:21:00,
2013-01-21 03:24:00,31.9,24.6,30.29,ENE,65,3.0,3.0,74,0.00,,,0.00,Wunderground v.1.15,2013-01-21 11:24:00,
2013-01-21 03:26:00,31.9,24.6,30.29,SE,132,2.0,3.0,74,0.00,,,0.00,Wunderground v.1.15,2013-01-21 11:26:00,
2013-01-21 03:29:00,31.9,24.6,30.29,ENE,60,2.0,3.0,74,0.00,,,0.00,Wunderground v.1.15,2013-01-21 11:29:00,
2013-01-21 03:30:00,31.9,24.6,30.29,East,96,2.0,3.0,74,0.00,,,0.00,Wunderground v.1.15,2013-01-21 11:30:00,
2013-01-21 03:34:00,31.8,24.5,30.29,NE,54,1.0,8.0,74,0.00,,,0.00,Wunderground v.1.15,2013-01-21 11:34:00,
2013-01-21 03:35:00,31.8,24.5,30.29,East,82,2.0,8.0,74,0.00,,,0.00,Wunderground v.1.15,2013-01-21 11:35:00,
2013-01-21 03:36:00,31.9,24.6,30.29,SE,139,2.0,8.0,74,0.00,,,0.00,Wunderground v.1.15,2013-01-21 11:36:00,
2013-01-21 03:38:00,32.0,24.6,30.29,ENE,74,2.0,8.0,74,0.00,,,0.00,Wunderground v.1.15,2013-01-21 11:38:00,
2013-01-21 03:40:00,32.0,24.6,30.29,NE,53,2.0,8.0,74,0.00,,,0.00,Wunderground v.1.15,2013-01-21 11:40:00,
2013-01-21 03:45:00,31.8,24.5,30.29,ENE,65,2.0,2.0,74,0.00,,,0.00,Wunderground v.1.15,2013-01-21 11:45:00,
2013-01-21 03:46:00,31.8,24.5,30.29,SE,136,2.0,5.0,74,0.00,,,0.00,Wunderground v.1.15,2013-01-21 11:46:00,
2013-01-21 03:51:00,31.8,24.5,30.28,SE,130,2.0,5.0,74,0.00,,,0.00,Wunderground v.1.15,2013-01-21 11:51:00,
2013-01-21 03:52:00,31.7,24.4,30.28,ESE,107,2.0,2.0,74,0.00,,,0.00,Wunderground v.1.15,2013-01-21 11:52:00,
2013-01-21 03:56:00,31.6,24.3,30.28,ESE,118,2.0,2.0,74,0.00,,,0.00,Wunderground v.1.15,2013-01-21 11:56:00,
2013-01-21 03:57:00,31.6,24.3,30.28,ESE,102,2.0,2.0,74,0.00,,,0.00,Wunderground v.1.15,2013-01-21 11:57:00,
2013-01-21 03:58:00,31.5,24.2,30.28,ESE,109,1.0,2.0,74,0.00,,,0.00,Wunderground v.1.15,2013-01-21 11:58:00,
2013-01-21 03:59:00,31.5,24.5,30.28,East,98,1.0,3.0,75,0.00,,,0.00,Wunderground v.1.15,2013-01-21 11:59:00,
2013-01-21 04:01:00,31.4,24.4,30.28,ENE,77,2.0,3.0,75,0.00,,,0.00,Wunderground v.1.15,2013-01-21 12:01:00,
2013-01-21 04:03:00,31.4,24.4,30.28,SE,130,1.0,2.0,75,0.00,,,0.00,Wunderground v.1.15,2013-01-21 12:03:00,
2013-01-21 04:04:00,31.3,24.3,30.28,SE,138,1.0,2.0,75,0.00,,,0.00,Wunderground v.1.15,2013-01-21 12:04:00,
2013-01-21 04:05:00,31.0,24.3,30.28,SW,235,1.0,2.0,76,0.00,,,0.00,Wunderground v.1.15,2013-01-21 12:05:00,
2013-01-21 04:08:00,30.1,24.1,30.29,WSW,248,1.0,2.0,78,0.00,,,0.00,Wunderground v.1.15,2013-01-21 12:08:00,
2013-01-21 04:11:00,29.1,23.7,30.29,SSW,197,1.0,2.0,80,0.00,,,0.00,Wunderground v.1.15,2013-01-21 12:11:00,
2013-01-21 04:12:00,28.8,23.7,30.29,SSW,204,1.0,1.0,81,0.00,,,0.00,Wunderground v.1.15,2013-01-21 12:12:00,
2013-01-21 04:13:00,28.6,23.5,30.29,SSW,204,1.0,1.0,81,0.00,,,0.00,Wunderground v.1.15,2013-01-21 12:13:00,
2013-01-21 04:16:00,28.0,23.5,30.28,SW,228,1.0,1.0,83,0.00,,,0.00,Wunderground v.1.15,2013-01-21 12:16:00,
2013-01-21 04:20:00,27.5,23.3,30.28,SE,144,0.0,1.0,84,0.00,,,0.00,Wunderground v.1.15,2013-01-21 12:20:00,
2013-01-21 04:22:00,27.3,23.1,30.28,SSE,155,0.0,0.0,84,0.00,,,0.00,Wunderground v.1.15,2013-01-21 12:22:00,
2013-01-21 04:23:00,27.2,23.3,30.28,SSE,155,0.0,0.0,85,0.00,,,0.00,Wunderground v.1.15,2013-01-21 12:23:00,
2013-01-21 04:28:00,27.1,23.2,30.28,SSE,160,0.0,1.0,85,0.00,,,0.00,Wunderground v.1.15,2013-01-21 12:28:00,
2013-01-21 04:29:00,27.1,23.2,30.28,ENE,65,0.0,1.0,85,0.00,,,0.00,Wunderground v.1.15,2013-01-21 12:29:00,
2013-01-21 04:30:00,27.3,23.4,30.28,ESE,121,0.0,1.0,85,0.00,,,0.00,Wunderground v.1.15,2013-01-21 12:30:00,
2013-01-21 04:33:00,27.6,23.4,30.27,SE,138,0.0,1.0,84,0.00,,,0.00,Wunderground v.1.15,2013-01-21 12:33:00,
2013-01-21 04:35:00,28.2,23.7,30.27,NE,50,0.0,6.0,83,0.00,,,0.00,Wunderground v.1.15,2013-01-21 12:35:00,
2013-01-21 04:38:00,29.2,24.1,30.27,North,358,1.0,6.0,81,0.00,,,0.00,Wunderground v.1.15,2013-01-21 12:38:00,
2013-01-21 04:42:00,30.0,24.3,30.27,NE,39,1.0,1.0,79,0.00,,,0.00,Wunderground v.1.15,2013-01-21 12:42:00,
2013-01-21 04:44:00,30.3,24.3,30.27,ENE,72,2.0,2.0,78,0.00,,,0.00,Wunderground v.1.15,2013-01-21 12:44:00,
2013-01-21 04:46:00,30.6,24.2,30.27,ENE,75,1.0,3.0,77,0.00,,,0.00,Wunderground v.1.15,2013-01-21 12:46:00,
2013-01-21 04:49:00,30.9,24.5,30.27,NE,46,1.0,3.0,77,0.00,,,0.00,Wunderground v.1.15,2013-01-21 12:49:00,
2013-01-21 04:52:00,31.0,24.3,30.27,East,92,1.0,1.0,76,0.00,,,0.00,Wunderground v.1.15,2013-01-21 12:52:00,
2013-01-21 04:53:00,31.0,24.3,30.27,ENE,58,2.0,2.0,76,0.00,,,0.00,Wunderground v.1.15,2013-01-21 12:53:00,
2013-01-21 04:58:00,31.1,24.4,30.27,ENE,63,1.0,2.0,76,0.00,,,0.00,Wunderground v.1.15,2013-01-21 12:58:00,
2013-01-21 05:00:00,31.1,24.4,30.27,ENE,77,2.0,3.0,76,0.00,,,0.00,Wunderground v.1.15,2013-01-21 13:00:00,
2013-01-21 05:01:00,31.2,24.5,30.27,ENE,61,2.0,6.0,76,0.00,,,0.00,Wunderground v.1.15,2013-01-21 13:01:00,
2013-01-21 05:03:00,31.3,24.3,30.27,NE,51,2.0,2.0,75,0.00,,,0.00,Wunderground v.1.15,2013-01-21 13:03:00,
2013-01-21 05:05:00,31.3,24.3,30.27,SE,134,2.0,3.0,75,0.00,,,0.00,Wunderground v.1.15,2013-01-21 13:05:00,
2013-01-21 05:06:00,31.3,24.3,30.26,ESE,105,2.0,3.0,75,0.00,,,0.00,Wunderground v.1.15,2013-01-21 13:06:00,
2013-01-21 05:07:00,31.3,24.3,30.27,ENE,77,2.0,3.0,75,0.00,,,0.00,Wunderground v.1.15,2013-01-21 13:07:00,
2013-01-21 05:11:00,31.3,24.3,30.26,ENE,68,2.0,4.0,75,0.00,,,0.00,Wunderground v.1.15,2013-01-21 13:11:00,
2013-01-21 05:12:00,31.4,24.4,30.26,ENE,65,2.0,5.0,75,0.00,,,0.00,Wunderground v.1.15,2013-01-21 13:12:00,
2013-01-21 05:14:00,31.5,24.5,30.26,East,84,2.0,5.0,75,0.00,,,0.00,Wunderground v.1.15,2013-01-21 13:14:00,
2013-01-21 05:16:00,31.5,24.5,30.26,East,79,2.0,5.0,75,0.00,,,0.00,Wunderground v.1.15,2013-01-21 13:16:00,
2013-01-21 05:19:00,31.6,24.6,30.26,ENE,68,3.0,5.0,75,0.00,,,0.00,Wunderground v.1.15,2013-01-21 13:19:00,
2013-01-21 05:20:00,31.6,24.6,30.26,ENE,76,3.0,5.0,75,0.00,,,0.00,Wunderground v.1.15,2013-01-21 13:20:00,
2013-01-21 05:24:00,31.6,24.6,30.26,East,84,3.0,3.0,75,0.00,,,0.00,Wunderground v.1.15,2013-01-21 13:24:00,
2013-01-21 05:26:00,31.6,24.6,30.26,NE,47,3.0,3.0,75,0.00,,,0.00,Wunderground v.1.15,2013-01-21 13:26:00,
2013-01-21 05:28:00,31.5,24.5,30.26,ENE,76,2.0,3.0,75,0.00,,,0.00,Wunderground v.1.15,2013-01-21 13:28:00,
2013-01-21 05:29:00,31.5,24.5,30.26,ENE,57,2.0,3.0,75,0.00,,,0.00,Wunderground v.1.15,2013-01-21 13:29:00,
2013-01-21 05:30:00,31.5,24.5,30.26,NE,52,2.0,3.0,75,0.00,,,0.00,Wunderground v.1.15,2013-01-21 13:30:00,
2013-01-21 05:32:00,31.5,24.5,30.26,NE,50,2.0,2.0,75,0.00,,,0.00,Wunderground v.1.15,2013-01-21 13:32:00,
2013-01-21 05:34:00,31.4,24.4,30.26,East,79,2.0,2.0,75,0.00,,,0.00,Wunderground v.1.15,2013-01-21 13:34:00,
2013-01-21 05:38:00,31.3,24.3,30.26,SW,231,1.0,3.0,75,0.00,,,0.00,Wunderground v.1.15,2013-01-21 13:38:00,
2013-01-21 05:39:00,30.9,23.9,30.26,SW,214,1.0,3.0,75,0.00,,,0.00,Wunderground v.1.15,2013-01-21 13:39:00,
2013-01-21 05:40:00,30.6,23.9,30.26,SW,215,1.0,3.0,76,0.00,,,0.00,Wunderground v.1.15,2013-01-21 13:40:00,
2013-01-21 05:45:00,28.2,23.1,30.26,WSW,245,1.0,3.0,81,0.00,,,0.00,Wunderground v.1.15,2013-01-21 13:45:00,
2013-01-21 05:46:00,27.9,22.8,30.26,WSW,243,1.0,3.0,81,0.00,,,0.00,Wunderground v.1.15,2013-01-21 13:46:00,
2013-01-21 05:50:00,26.9,22.7,30.26,West,269,1.0,3.0,84,0.00,,,0.00,Wunderground v.1.15,2013-01-21 13:50:00,
2013-01-21 05:51:00,26.7,22.8,30.26,West,259,1.0,3.0,85,0.00,,,0.00,Wunderground v.1.15,2013-01-21 13:51:00,
2013-01-21 05:56:00,25.9,22.6,30.26,SW,223,1.0,1.0,87,0.00,,,0.00,Wunderground v.1.15,2013-01-21 13:56:00,
2013-01-21 05:57:00,25.7,22.4,30.26,SE,131,0.0,1.0,87,0.00,,,0.00,Wunderground v.1.15,2013-01-21 13:57:00,
2013-01-21 05:59:00,25.5,22.2,30.25,WSW,247,1.0,1.0,87,0.00,,,0.00,Wunderground v.1.15,2013-01-21 13:59:00,
2013-01-21 06:02:00,25.3,22.2,30.25,NE,39,0.0,2.0,88,0.00,,,0.00,Wunderground v.1.15,2013-01-21 14:02:00,
2013-01-21 06:04:00,25.4,22.6,30.25,ESE,112,0.0,5.0,89,0.00,,,0.00,Wunderground v.1.15,2013-01-21 14:04:00,
2013-01-21 06:05:00,25.9,23.1,30.25,NNE,29,0.0,5.0,89,0.00,,,0.00,Wunderground v.1.15,2013-01-21 14:05:00,
2013-01-21 06:07:00,27.1,23.7,30.25,NE,51,1.0,5.0,87,0.00,,,0.00,Wunderground v.1.15,2013-01-21 14:07:00,
2013-01-21 06:10:00,28.4,24.2,30.25,ENE,67,2.0,5.0,84,0.00,,,0.00,Wunderground v.1.15,2013-01-21 14:10:00,
2013-01-21 06:11:00,28.8,24.6,30.25,ENE,61,2.0,5.0,84,0.00,,,0.00,Wunderground v.1.15,2013-01-21 14:11:00,
2013-01-21 06:15:00,29.9,24.5,30.25,ESE,120,4.0,4.0,80,0.00,,,0.00,Wunderground v.1.15,2013-01-21 14:15:00,
2013-01-21 06:16:00,30.1,24.7,30.25,East,96,4.0,4.0,80,0.00,,,0.00,Wunderground v.1.15,2013-01-21 14:16:00,
2013-01-21 06:17:00,30.2,24.8,30.25,ESE,105,4.0,4.0,80,0.00,,,0.00,Wunderground v.1.15,2013-01-21 14:17:00,
2013-01-21 06:18:00,30.4,24.7,30.25,ESE,120,4.0,4.0,79,0.00,,,0.00,Wunderground v.1.15,2013-01-21 14:18:00,
2013-01-21 06:24:00,30.8,24.7,30.24,East,82,4.0,8.0,78,0.00,,,0.00,Wunderground v.1.15,2013-01-21 14:24:00,
2013-01-21 06:25:00,30.8,24.7,30.24,ENE,77,4.0,8.0,78,0.00,,,0.00,Wunderground v.1.15,2013-01-21 14:25:00,
2013-01-21 06:27:00,30.9,24.8,30.24,NE,45,5.0,9.0,78,0.00,,,0.00,Wunderground v.1.15,2013-01-21 14:27:00,
2013-01-21 06:29:00,30.9,24.8,30.24,NE,51,5.0,9.0,78,0.00,,,0.00,Wunderground v.1.15,2013-01-21 14:29:00,
2013-01-21 06:30:00,31.0,24.6,30.24,NNE,23,5.0,9.0,77,0.00,,,0.00,Wunderground v.1.15,2013-01-21 14:30:00,
2013-01-21 06:32:00,31.0,24.6,30.24,NE,43,5.0,5.0,77,0.00,,,0.00,Wunderground v.1.15,2013-01-21 14:32:00,
2013-01-21 06:34:00,31.0,24.6,30.23,ENE,65,5.0,9.0,77,0.00,,,0.00,Wunderground v.1.15,2013-01-21 14:34:00,
2013-01-21 06:37:00,31.0,24.6,30.23,NE,50,4.0,9.0,77,0.00,,,0.00,Wunderground v.1.15,2013-01-21 14:37:00,
2013-01-21 06:38:00,31.0,24.6,30.23,NE,40,4.0,9.0,77,0.00,,,0.00,Wunderground v.1.15,2013-01-21 14:38:00,
2013-01-21 06:39:00,31.0,24.6,30.23,East,85,4.0,9.0,77,0.00,,,0.00,Wunderground v.1.15,2013-01-21 14:39:00,
2013-01-21 06:42:00,31.0,24.6,30.23,NE,36,4.0,6.0,77,0.00,,,0.00,Wunderground v.1.15,2013-01-21 14:42:00,
2013-01-21 06:43:00,31.0,24.6,30.23,East,86,4.0,6.0,77,0.00,,,0.00,Wunderground v.1.15,2013-01-21 14:43:00,
2013-01-21 06:44:00,31.0,24.6,30.23,ENE,77,4.0,6.0,77,0.00,,,0.00,Wunderground v.1.15,2013-01-21 14:44:00,
2013-01-21 06:47:00,31.0,24.6,30.22,ESE,108,4.0,6.0,77,0.00,,,0.00,Wunderground v.1.15,2013-01-21 14:47:00,
2013-01-21 06:49:00,31.1,24.7,30.23,NE,44,4.0,6.0,77,0.00,,,0.00,Wunderground v.1.15,2013-01-21 14:49:00,
2013-01-21 06:51:00,31.1,24.7,30.22,ENE,78,4.0,6.0,77,0.00,,,0.00,Wunderground v.1.15,2013-01-21 14:51:00,
2013-01-21 06:53:00,31.1,24.7,30.22,East,88,3.0,4.0,77,0.00,,,0.00,Wunderground v.1.15,2013-01-21 14:53:00,
2013-01-21 06:55:00,31.1,24.7,30.22,East,96,3.0,4.0,77,0.00,,,0.00,Wunderground v.1.15,2013-01-21 14:55:00,
2013-01-21 06:56:00,31.0,24.6,30.22,ENE,65,2.0,4.0,77,0.00,,,0.00,Wunderground v.1.15,2013-01-21 14:56:00,
2013-01-21 07:00:00,31.1,24.7,30.22,ENE,70,2.0,4.0,77,0.00,,,0.00,Wunderground v.1.15,2013-01-21 15:00:00,
2013-01-21 07:01:00,31.1,24.7,30.22,NE,51,3.0,4.0,77,0.00,,,0.00,Wunderground v.1.15,2013-01-21 15:01:00,
2013-01-21 07:02:00,31.1,24.7,30.22,ENE,65,2.0,2.0,77,0.00,,,0.00,Wunderground v.1.15,2013-01-21 15:02:00,
2013-01-21 07:03:00,31.2,24.5,30.22,ENE,65,3.0,3.0,76,0.00,,,0.00,Wunderground v.1.15,2013-01-21 15:03:00,
2013-01-21 07:07:00,31.2,24.5,30.22,ENE,77,3.0,3.0,76,0.00,,,0.00,Wunderground v.1.15,2013-01-21 15:07:00,
2013-01-21 07:11:00,31.2,24.5,30.22,ENE,60,2.0,7.0,76,0.00,,,0.00,Wunderground v.1.15,2013-01-21 15:11:00,
2013-01-21 07:12:00,31.2,24.5,30.22,ENE,71,2.0,7.0,76,0.00,,,0.00,Wunderground v.1.15,2013-01-21 15:12:00,
2013-01-21 07:13:00,31.2,24.5,30.22,ENE,57,2.0,7.0,76,0.00,,,0.00,Wunderground v.1.15,2013-01-21 15:13:00,
2013-01-21 07:15:00,31.3,24.6,30.22,ENE,58,2.0,7.0,76,0.00,,,0.00,Wunderground v.1.15,2013-01-21 15:15:00,
2013-01-21 07:17:00,31.3,24.6,30.22,NNE,27,3.0,7.0,76,0.00,,,0.00,Wunderground v.1.15,2013-01-21 15:17:00,
2013-01-21 07:18:00,31.3,24.6,30.22,East,91,3.0,7.0,76,0.00,,,0.00,Wunderground v.1.15,2013-01-21 15:18:00,
2013-01-21 07:19:00,31.3,24.6,30.22,NE,51,3.0,7.0,76,0.00,,,0.00,Wunderground v.1.15,2013-01-21 15:19:00,
2013-01-21 07:23:00,31.3,24.6,30.22,NE,39,3.0,5.0,76,0.00,,,0.00,Wunderground v.1.15,2013-01-21 15:23:00,
2013-01-21 07:24:00,31.3,24.6,30.22,ENE,77,3.0,5.0,76,0.00,,,0.00,Wunderground v.1.15,2013-01-21 15:24:00,
2013-01-21 07:29:00,31.3,24.6,30.22,East,87,3.0,5.0,76,0.00,,,0.00,Wunderground v.1.15,2013-01-21 15:29:00,
2013-01-21 07:30:00,31.3,24.6,30.22,NE,53,3.0,9.0,76,0.00,,,0.00,Wunderground v.1.15,2013-01-21 15:30:00,
2013-01-21 07:35:00,31.3,24.6,30.22,NE,36,4.0,11.0,76,0.00,,,0.00,Wunderground v.1.15,2013-01-21 15:35:00,
2013-01-21 07:36:00,31.2,24.8,30.22,East,85,4.0,13.0,77,0.00,,,0.00,Wunderground v.1.15,2013-01-21 15:36:00,
2013-01-21 07:38:00,31.2,24.8,30.22,East,79,5.0,13.0,77,0.00,,,0.00,Wunderground v.1.15,2013-01-21 15:38:00,
2013-01-21 07:40:00,31.1,24.7,30.22,East,82,5.0,13.0,77,0.00,,,0.00,Wunderground v.1.15,2013-01-21 15:40:00,
2013-01-21 07:44:00,31.0,24.6,30.22,NE,36,6.0,6.0,77,0.00,,,0.00,Wunderground v.1.15,2013-01-21 15:44:00,
2013-01-21 07:46:00,31.0,24.6,30.22,ESE,108,6.0,9.0,77,0.00,,,0.00,Wunderground v.1.15,2013-01-21 15:46:00,
2013-01-21 07:47:00,31.0,24.6,30.22,ENE,70,6.0,9.0,77,0.00,,,0.00,Wunderground v.1.15,2013-01-21 15:47:00,
2013-01-21 07:50:00,30.8,24.7,30.22,NE,36,7.0,9.0,78,0.00,,,0.00,Wunderground v.1.15,2013-01-21 15:50:00,
2013-01-21 07:52:00,30.8,24.7,30.22,East,93,6.0,6.0,78,0.00,,,0.00,Wunderground v.1.15,2013-01-21 15:52:00,
2013-01-21 07:55:00,30.6,24.6,30.22,South,177,6.0,8.0,78,0.00,,,0.00,Wunderground v.1.15,2013-01-21 15:55:00,
2013-01-21 07:56:00,30.6,24.6,30.22,ESE,113,6.0,8.0,78,0.00,,,0.00,Wunderground v.1.15,2013-01-21 15:56:00,
2013-01-21 07:57:00,30.6,24.6,30.22,ENE,64,6.0,8.0,78,0.00,,,0.00,Wunderground v.1.15,2013-01-21 15:57:00,
2013-01-21 08:00:00,30.6,24.9,30.22,East,79,7.0,10.0,79,0.00,,,0.00,Wunderground v.1.15,2013-01-21 16:00:00,
2013-01-21 08:02:00,30.6,24.9,30.22,ENE,66,7.0,7.0,79,0.00,,,0.00,Wunderground v.1.15,2013-01-21 16:02:00,
2013-01-21 08:06:00,30.7,25.0,30.23,NE,46,7.0,9.0,79,0.00,,,0.00,Wunderground v.1.15,2013-01-21 16:06:00,
2013-01-21 08:07:00,30.8,25.1,30.23,East,94,7.0,9.0,79,0.00,,,0.00,Wunderground v.1.15,2013-01-21 16:07:00,
2013-01-21 08:09:00,30.8,25.1,30.23,NE,55,7.0,9.0,79,0.00,,,0.00,Wunderground v.1.15,2013-01-21 16:09:00,
2013-01-21 08:11:00,30.8,25.1,30.23,East,89,6.0,9.0,79,0.00,,,0.00,Wunderground v.1.15,2013-01-21 16:11:00,
2013-01-21 08:13:00,30.9,24.8,30.23,ESE,107,5.0,8.0,78,0.00,,,0.00,Wunderground v.1.15,2013-01-21 16:13:00,
2013-01-21 08:15:00,30.9,24.8,30.23,ENE,66,5.0,8.0,78,0.00,,,0.00,Wunderground v.1.15,2013-01-21 16:15:00,
2013-01-21 08:16:00,31.0,24.9,30.23,ENE,57,5.0,8.0,78,0.00,,,0.00,Wunderground v.1.15,2013-01-21 16:16:00,
2013-01-21 08:20:00,31.1,25.0,30.24,ENE,58,5.0,8.0,78,0.00,,,0.00,Wunderground v.1.15,2013-01-21 16:20:00,
2013-01-21 08:21:00,31.1,25.0,30.23,NE,54,5.0,8.0,78,0.00,,,0.00,Wunderground v.1.15,2013-01-21 16:21:00,
2013-01-21 08:24:00,31.2,25.1,30.24,North,352,5.0,6.0,78,0.00,,,0.00,Wunderground v.1.15,2013-01-21 16:24:00,
2013-01-21 08:27:00,31.3,25.2,30.24,NE,54,5.0,6.0,78,0.00,,,0.00,Wunderground v.1.15,2013-01-21 16:27:00,
2013-01-21 08:28:00,31.3,25.2,30.24,NE,48,5.0,6.0,78,0.00,,,0.00,Wunderground v.1.15,2013-01-21 16:28:00,
2013-01-21 08:29:00,31.3,25.2,30.24,NE,54,5.0,15.0,78,0.00,,,0.00,Wunderground v.1.15,2013-01-21 16:29:00,
2013-01-21 08:32:00,31.4,25.0,30.24,SE,126,5.0,5.0,77,0.00,,,0.00,Wunderground v.1.15,2013-01-21 16:32:00,
2013-01-21 08:33:00,31.4,25.0,30.24,NE,39,6.0,8.0,77,0.00,,,0.00,Wunderground v.1.15,2013-01-21 16:33:00,
2013-01-21 08:34:00,31.5,25.1,30.24,East,89,6.0,8.0,77,0.00,,,0.00,Wunderground v.1.15,2013-01-21 16:34:00,
2013-01-21 08:35:00,31.5,25.1,30.24,East,89,6.0,17.0,77,0.00,,,0.00,Wunderground v.1.15,2013-01-21 16:35:00,
2013-01-21 08:40:00,31.6,25.2,30.24,ESE,122,6.0,17.0,77,0.00,,,0.00,Wunderground v.1.15,2013-01-21 16:40:00,
2013-01-21 08:41:00,31.6,25.2,30.24,ENE,77,6.0,17.0,77,0.00,,,0.00,Wunderground v.1.15,2013-01-21 16:41:00,
2013-01-21 08:42:00,31.6,25.2,30.24,ENE,77,6.0,10.0,77,0.00,,,0.00,Wunderground v.1.15,2013-01-21 16:42:00,
2013-01-21 08:44:00,31.6,25.2,30.24,NNW,335,7.0,10.0,77,0.00,,,0.00,Wunderground v.1.15,2013-01-21 16:44:00,
2013-01-21 08:47:00,31.7,25.3,30.24,ENE,65,7.0,10.0,77,0.00,,,0.00,Wunderground v.1.15,2013-01-21 16:47:00,
2013-01-21 08:50:00,31.8,25.4,30.24,ENE,77,7.0,13.0,77,0.00,,,0.00,Wunderground v.1.15,2013-01-21 16:50:00,
2013-01-21 08:51:00,31.8,25.1,30.24,ENE,59,8.0,13.0,76,0.00,,,0.00,Wunderground v.1.15,2013-01-21 16:51:00,
2013-01-21 08:53:00,31.8,25.4,30.24,SE,146,7.0,8.0,77,0.00,,,0.00,Wunderground v.1.15,2013-01-21 16:53:00,
2013-01-21 08:57:00,31.8,25.4,30.24,East,86,8.0,15.0,77,0.00,,,0.00,Wunderground v.1.15,2013-01-21 16:57:00,
2013-01-21 08:58:00,31.8,25.4,30.24,NE,44,7.0,15.0,77,0.00,,,0.00,Wunderground v.1.15,2013-01-21 16:58:00,
2013-01-21 09:01:00,31.9,25.2,30.25,East,84,7.0,15.0,76,0.00,,,0.00,Wunderground v.1.15,2013-01-21 17:01:00,
2013-01-21 09:03:00,32.0,25.3,30.25,ENE,61,8.0,13.0,76,0.00,,,0.00,Wunderground v.1.15,2013-01-21 17:03:00,
2013-01-21 09:04:00,32.0,25.3,30.25,East,87,8.0,13.0,76,0.00,,,0.00,Wunderground v.1.15,2013-01-21 17:04:00,
2013-01-21 09:06:00,32.1,25.4,30.24,NE,47,8.0,13.0,76,0.00,,,0.00,Wunderground v.1.15,2013-01-21 17:06:00,
2013-01-21 09:09:00,32.1,25.4,30.25,ENE,65,8.0,13.0,76,0.00,,,0.00,Wunderground v.1.15,2013-01-21 17:09:00,
2013-01-21 09:10:00,32.1,25.1,30.25,ESE,105,9.0,13.0,75,0.00,,,0.00,Wunderground v.1.15,2013-01-21 17:10:00,
2013-01-21 09:12:00,32.1,25.1,30.25,ENE,61,8.0,8.0,75,0.00,,,0.00,Wunderground v.1.15,2013-01-21 17:12:00,
2013-01-21 09:13:00,32.1,25.1,30.25,NNE,22,9.0,9.0,75,0.00,,,0.00,Wunderground v.1.15,2013-01-21 17:13:00,
2013-01-21 09:14:00,32.2,25.2,30.25,ENE,72,8.0,9.0,75,0.00,,,0.00,Wunderground v.1.15,2013-01-21 17:14:00,
2013-01-21 09:16:00,32.2,25.2,30.25,ESE,108,8.0,12.0,75,0.00,,,0.00,Wunderground v.1.15,2013-01-21 17:16:00,
2013-01-21 09:18:00,32.2,25.2,30.25,ENE,57,8.0,12.0,75,0.00,,,0.00,Wunderground v.1.15,2013-01-21 17:18:00,
2013-01-21 09:19:00,32.2,25.2,30.25,ENE,57,8.0,12.0,75,0.00,,,0.00,Wunderground v.1.15,2013-01-21 17:19:00,
2013-01-21 09:24:00,32.4,25.4,30.25,SSE,153,8.0,17.0,75,0.00,,,0.00,Wunderground v.1.15,2013-01-21 17:24:00,
2013-01-21 09:25:00,32.4,25.4,30.25,NE,55,7.0,17.0,75,0.00,,,0.00,Wunderground v.1.15,2013-01-21 17:25:00,
2013-01-21 09:26:00,32.5,25.5,30.25,NNE,30,7.0,17.0,75,0.00,,,0.00,Wunderground v.1.15,2013-01-21 17:26:00,
2013-01-21 09:27:00,32.5,25.5,30.25,NNE,30,7.0,17.0,75,0.00,,,0.00,Wunderground v.1.15,2013-01-21 17:27:00,
2013-01-21 09:31:00,32.7,25.3,30.25,ENE,61,7.0,17.0,74,0.00,,,0.00,Wunderground v.1.15,2013-01-21 17:31:00,
2013-01-21 09:32:00,32.8,25.7,30.25,NE,51,7.0,10.0,75,0.00,,,0.00,Wunderground v.1.15,2013-01-21 17:32:00,
2013-01-21 09:33:00,32.8,25.4,30.25,ENE,58,7.0,11.0,74,0.00,,,0.00,Wunderground v.1.15,2013-01-21 17:33:00,
2013-01-21 09:37:00,33.0,25.6,30.25,East,96,7.0,13.0,74,0.00,,,0.00,Wunderground v.1.15,2013-01-21 17:37:00,
2013-01-21 09:38:00,33.0,25.6,30.25,ESE,122,7.0,13.0,74,0.00,,,0.00,Wunderground v.1.15,2013-01-21 17:38:00,
2013-01-21 09:39:00,33.1,25.4,30.25,ESE,108,7.0,13.0,73,0.00,,,0.00,Wunderground v.1.15,2013-01-21 17:39:00,
2013-01-21 09:40:00,33.2,25.5,30.25,SSE,153,7.0,13.0,73,0.00,,,0.00,Wunderground v.1.15,2013-01-21 17:40:00,
2013-01-21 09:43:00,33.4,25.7,30.25,NE,56,7.0,8.0,73,0.00,,,0.00,Wunderground v.1.15,2013-01-21 17:43:00,
2013-01-21 09:44:00,33.5,25.8,30.25,ENE,58,7.0,11.0,73,0.00,,,0.00,Wunderground v.1.15,2013-01-21 17:44:00,
2013-01-21 09:45:00,33.6,25.5,30.25,East,95,7.0,11.0,72,0.00,,,0.00,Wunderground v.1.15,2013-01-21 17:45:00,
2013-01-21 09:46:00,33.7,25.6,30.25,East,87,7.0,11.0,72,0.00,,,0.00,Wunderground v.1.15,2013-01-21 17:46:00,
2013-01-21 09:50:00,34.0,25.6,30.26,ESE,116,7.0,11.0,71,0.00,,,0.00,Wunderground v.1.15,2013-01-21 17:50:00,
2013-01-21 09:51:00,34.1,25.7,30.26,ENE,61,6.0,11.0,71,0.00,,,0.00,Wunderground v.1.15,2013-01-21 17:51:00,
2013-01-21 09:52:00,34.1,25.7,30.26,NE,34,6.0,8.0,71,0.00,,,0.00,Wunderground v.1.15,2013-01-21 17:52:00,
2013-01-21 09:55:00,34.3,25.5,30.26,ENE,70,6.0,8.0,70,0.00,,,0.00,Wunderground v.1.15,2013-01-21 17:55:00,
2013-01-21 09:57:00,34.5,25.7,30.26,East,86,6.0,8.0,70,0.00,,,0.00,Wunderground v.1.15,2013-01-21 17:57:00,
2013-01-21 10:00:00,34.7,25.6,30.26,NE,55,5.0,8.0,69,0.00,,,0.00,Wunderground v.1.15,2013-01-21 18:00:00,
2013-01-21 10:02:00,34.8,25.7,30.26,East,84,5.0,5.0,69,0.00,,,0.00,Wunderground v.1.15,2013-01-21 18:02:00,
2013-01-21 10:03:00,34.9,25.8,30.26,NE,39,4.0,6.0,69,0.00,,,0.00,Wunderground v.1.15,2013-01-21 18:03:00,
2013-01-21 10:05:00,35.1,25.6,30.26,SE,135,5.0,6.0,68,0.00,,,0.00,Wunderground v.1.15,2013-01-21 18:05:00,
2013-01-21 10:06:00,35.1,25.6,30.26,NE,50,5.0,6.0,68,0.00,,,0.00,Wunderground v.1.15,2013-01-21 18:06:00,
2013-01-21 10:09:00,35.3,25.8,30.26,NE,56,5.0,6.0,68,0.00,,,0.00,Wunderground v.1.15,2013-01-21 18:09:00,
2013-01-21 10:10:00,35.4,25.9,30.26,WSW,240,5.0,6.0,68,0.00,,,0.00,Wunderground v.1.15,2013-01-21 18:10:00,
2013-01-21 10:13:00,35.5,25.6,30.27,ENE,70,5.0,7.0,67,0.00,,,0.00,Wunderground v.1.15,2013-01-21 18:13:00,
2013-01-21 10:14:00,35.6,25.7,30.27,ENE,59,5.0,10.0,67,0.00,,,0.00,Wunderground v.1.15,2013-01-21 18:14:00,
2013-01-21 10:16:00,35.7,25.4,30.27,ENE,58,6.0,10.0,66,0.00,,,0.00,Wunderground v.1.15,2013-01-21 18:16:00,
2013-01-21 10:19:00,35.9,25.6,30.27,NE,52,6.0,10.0,66,0.00,,,0.00,Wunderground v.1.15,2013-01-21 18:19:00,
2013-01-21 10:20:00,35.9,25.6,30.27,West,260,6.0,10.0,66,0.00,,,0.00,Wunderground v.1.15,2013-01-21 18:20:00,
2013-01-21 10:22:00,36.0,25.7,30.27,ENE,72,6.0,6.0,66,0.00,,,0.00,Wunderground v.1.15,2013-01-21 18:22:00,
2013-01-21 10:23:00,36.1,25.8,30.26,NE,53,5.0,6.0,66,0.00,,,0.00,Wunderground v.1.15,2013-01-21 18:23:00,
2013-01-21 10:25:00,36.1,25.5,30.26,ESE,102,6.0,9.0,65,0.00,,,0.00,Wunderground v.1.15,2013-01-21 18:25:00,
2013-01-21 10:27:00,36.1,25.5,30.26,ESE,121,6.0,9.0,65,0.00,,,0.00,Wunderground v.1.15,2013-01-21 18:27:00,
2013-01-21 10:29:00,36.3,26.0,30.26,East,92,6.0,9.0,66,0.00,,,0.00,Wunderground v.1.15,2013-01-21 18:29:00,
2013-01-21 10:30:00,36.3,26.0,30.26,East,98,5.0,9.0,66,0.00,,,0.00,Wunderground v.1.15,2013-01-21 18:30:00,
2013-01-21 10:35:00,36.7,26.0,30.26,NE,49,5.0,5.0,65,0.00,,,0.00,Wunderground v.1.15,2013-01-21 18:35:00,
2013-01-21 10:36:00,36.8,26.1,30.26,ENE,75,4.0,5.0,65,0.00,,,0.00,Wunderground v.1.15,2013-01-21 18:36:00,
2013-01-21 10:37:00,36.8,25.8,30.26,ENE,64,4.0,5.0,64,0.00,,,0.00,Wunderground v.1.15,2013-01-21 18:37:00,
2013-01-21 10:42:00,37.1,26.0,30.26,NE,55,4.0,4.0,64,0.00,,,0.00,Wunderground v.1.15,2013-01-21 18:42:00,
2013-01-21 10:43:00,37.1,25.7,30.26,ENE,64,4.0,6.0,63,0.00,,,0.00,Wunderground v.1.15,2013-01-21 18:43:00,
2013-01-21 10:44:00,37.1,25.7,30.26,North,8,5.0,13.0,63,0.00,,,0.00,Wunderground v.1.15,2013-01-21 18:44:00,
2013-01-21 10:46:00,37.0,25.6,30.26,ENE,70,5.0,13.0,63,0.00,,,0.00,Wunderground v.1.15,2013-01-21 18:46:00,
2013-01-21 10:50:00,37.0,25.6,30.26,SE,126,6.0,13.0,63,0.00,,,0.00,Wunderground v.1.15,2013-01-21 18:50:00,
2013-01-21 10:51:00,37.0,25.6,30.26,NE,40,6.0,13.0,63,0.00,,,0.00,Wunderground v.1.15,2013-01-21 18:51:00,
2013-01-21 10:55:00,37.0,25.6,30.26,ESE,108,6.0,10.0,63,0.00,,,0.00,Wunderground v.1.15,2013-01-21 18:55:00,
2013-01-21 10:58:00,37.0,25.6,30.26,ENE,60,6.0,10.0,63,0.00,,,0.00,Wunderground v.1.15,2013-01-21 18:58:00,
2013-01-21 11:00:00,37.1,25.7,30.25,ESE,122,6.0,10.0,63,0.00,,,0.00,Wunderground v.1.15,2013-01-21 19:00:00,
2013-01-21 11:01:00,37.2,25.8,30.25,East,88,6.0,6.0,63,0.00,,,0.00,Wunderground v.1.15,2013-01-21 19:01:00,
2013-01-21 11:07:00,37.2,25.4,30.25,NE,50,5.0,7.0,62,0.00,,,0.00,Wunderground v.1.15,2013-01-21 19:07:00,
2013-01-21 11:08:00,37.2,25.4,30.25,NNE,30,5.0,7.0,62,0.00,,,0.00,Wunderground v.1.15,2013-01-21 19:08:00,
2013-01-21 11:12:00,37.3,25.5,30.25,ENE,70,6.0,8.0,62,0.00,,,0.00,Wunderground v.1.15,2013-01-21 19:12:00,
2013-01-21 11:14:00,37.3,25.5,30.25,ENE,77,6.0,8.0,62,0.00,,,0.00,Wunderground v.1.15,2013-01-21 19:14:00,
2013-01-21 11:16:00,37.3,25.5,30.25,NE,53,6.0,8.0,62,0.00,,,0.00,Wunderground v.1.15,2013-01-21 19:16:00,
2013-01-21 11:19:00,37.2,25.4,30.25,SE,141,5.0,9.0,62,0.00,,,0.00,Wunderground v.1.15,2013-01-21 19:19:00,
2013-01-21 11:20:00,37.2,25.4,30.25,ENE,60,5.0,9.0,62,0.00,,,0.00,Wunderground v.1.15,2013-01-21 19:20:00,
2013-01-21 11:21:00,37.3,25.5,30.25,East,81,5.0,9.0,62,0.00,,,0.00,Wunderground v.1.15,2013-01-21 19:21:00,
2013-01-21 11:22:00,37.3,25.5,30.25,ESE,122,5.0,9.0,62,0.00,,,0.00,Wunderground v.1.15,2013-01-21 19:22:00,
2013-01-21 11:25:00,37.5,25.7,30.25,ENE,65,5.0,9.0,62,0.00,,,0.00,Wunderground v.1.15,2013-01-21 19:25:00,
2013-01-21 11:27:00,37.7,25.8,30.25,SSE,159,4.0,5.0,62,0.00,,,0.00,Wunderground v.1.15,2013-01-21 19:27:00,
2013-01-21 11:29:00,37.9,25.6,30.25,ENE,75,4.0,12.0,61,0.00,,,0.00,Wunderground v.1.15,2013-01-21 19:29:00,
2013-01-21 11:33:00,38.4,25.7,30.24,NNE,23,3.0,12.0,60,0.00,,,0.00,Wunderground v.1.15,2013-01-21 19:33:00,
2013-01-21 11:34:00,38.4,26.1,30.24,East,79,3.0,12.0,61,0.00,,,0.00,Wunderground v.1.15,2013-01-21 19:34:00,
2013-01-21 11:37:00,38.5,25.8,30.24,NE,51,4.0,5.0,60,0.00,,,0.00,Wunderground v.1.15,2013-01-21 19:37:00,
2013-01-21 11:39:00,38.7,26.0,30.24,NE,56,3.0,5.0,60,0.00,,,0.00,Wunderground v.1.15,2013-01-21 19:39:00,
2013-01-21 11:40:00,38.8,26.1,30.24,NE,54,3.0,5.0,60,0.00,,,0.00,Wunderground v.1.15,2013-01-21 19:40:00,
2013-01-21 11:41:00,38.9,25.8,30.24,NE,50,3.0,5.0,59,0.00,,,0.00,Wunderground v.1.15,2013-01-21 19:41:00,
2013-01-21 11:46:00,39.1,25.6,30.24,NNE,16,3.0,4.0,58,0.00,,,0.00,Wunderground v.1.15,2013-01-21 19:46:00,
2013-01-21 11:47:00,39.1,25.6,30.24,NE,40,3.0,4.0,58,0.00,,,0.00,Wunderground v.1.15,2013-01-21 19:47:00,
2013-01-21 11:48:00,39.1,25.6,30.23,East,95,3.0,4.0,58,0.00,,,0.00,Wunderground v.1.15,2013-01-21 19:48:00,
2013-01-21 11:53:00,39.2,25.6,30.23,ESE,113,3.0,5.0,58,0.00,,,0.00,Wunderground v.1.15,2013-01-21 19:53:00,
2013-01-21 11:54:00,39.3,25.7,30.23,NE,39,3.0,5.0,58,0.00,,,0.00,Wunderground v.1.15,2013-01-21 19:54:00,
2013-01-21 11:55:00,39.4,25.8,30.23,ESE,117,3.0,5.0,58,0.00,,,0.00,Wunderground v.1.15,2013-01-21 19:55:00,
2013-01-21 11:59:00,39.6,25.6,30.23,ENE,59,3.0,5.0,57,0.00,,,0.00,Wunderground v.1.15,2013-01-21 19:59:00,
2013-01-21 12:00:00,39.6,26.0,30.23,ENE,64,3.0,5.0,58,0.00,,,0.00,Wunderground v.1.15,2013-01-21 20:00:00,
2013-01-21 12:01:00,39.5,25.9,30.23,ENE,66,3.0,5.0,58,0.00,,,0.00,Wunderground v.1.15,2013-01-21 20:01:00,
2013-01-21 12:04:00,39.3,25.7,30.22,East,94,4.0,8.0,58,0.00,,,0.00,Wunderground v.1.15,2013-01-21 20:04:00,
2013-01-21 12:07:00,39.1,25.1,30.22,East,92,4.0,9.0,57,0.00,,,0.00,Wunderground v.1.15,2013-01-21 20:07:00,
2013-01-21 12:10:00,39.0,25.5,30.22,NE,49,5.0,9.0,58,0.00,,,0.00,Wunderground v.1.15,2013-01-21 20:10:00,
2013-01-21 12:11:00,39.0,25.5,30.22,ENE,58,6.0,9.0,58,0.00,,,0.00,Wunderground v.1.15,2013-01-21 20:11:00,
2013-01-21 12:12:00,39.0,25.5,30.22,ENE,57,6.0,6.0,58,0.00,,,0.00,Wunderground v.1.15,2013-01-21 20:12:00,
2013-01-21 12:13:00,39.0,25.5,30.23,SE,144,6.0,6.0,58,0.00,,,0.00,Wunderground v.1.15,2013-01-21 20:13:00,
2013-01-21 12:15:00,39.1,26.0,30.22,ESE,113,6.0,6.0,59,0.00,,,0.00,Wunderground v.1.15,2013-01-21 20:15:00,
2013-01-21 12:18:00,39.2,25.6,30.23,ENE,60,5.0,6.0,58,0.00,,,0.00,Wunderground v.1.15,2013-01-21 20:18:00,
2013-01-21 12:22:00,39.2,25.6,30.22,East,86,5.0,5.0,58,0.00,,,0.00,Wunderground v.1.15,2013-01-21 20:22:00,
2013-01-21 12:23:00,39.2,25.6,30.22,ENE,65,5.0,5.0,58,0.00,,,0.00,Wunderground v.1.15,2013-01-21 20:23:00,
2013-01-21 12:24:00,39.2,25.6,30.22,SW,233,5.0,5.0,58,0.00,,,0.00,Wunderground v.1.15,2013-01-21 20:24:00,
2013-01-21 12:27:00,39.3,25.7,30.22,ENE,71,5.0,6.0,58,0.00,,,0.00,Wunderground v.1.15,2013-01-21 20:27:00,
2013-01-21 12:31:00,39.5,25.9,30.22,ENE,67,4.0,6.0,58,0.00,,,0.00,Wunderground v.1.15,2013-01-21 20:31:00,
2013-01-21 12:34:00,39.6,25.6,30.22,NE,53,4.0,7.0,57,0.00,,,0.00,Wunderground v.1.15,2013-01-21 20:34:00,
2013-01-21 12:35:00,39.7,25.7,30.22,ENE,61,4.0,7.0,57,0.00,,,0.00,Wunderground v.1.15,2013-01-21 20:35:00,
2013-01-21 12:36:00,39.8,25.8,30.22,East,98,4.0,7.0,57,0.00,,,0.00,Wunderground v.1.15,2013-01-21 20:36:00,
2013-01-21 12:38:00,39.8,25.8,30.22,ENE,76,4.0,7.0,57,0.00,,,0.00,Wunderground v.1.15,2013-01-21 20:38:00,
2013-01-21 12:40:00,39.6,25.6,30.22,ENE,76,5.0,7.0,57,0.00,,,0.00,Wunderground v.1.15,2013-01-21 20:40:00,
2013-01-21 12:45:00,39.6,25.6,30.22,NE,46,5.0,7.0,57,0.00,,,0.00,Wunderground v.1.15,2013-01-21 20:45:00,
2013-01-21 12:46:00,39.6,25.6,30.22,NE,56,5.0,7.0,57,0.00,,,0.00,Wunderground v.1.15,2013-01-21 20:46:00,
2013-01-21 12:47:00,39.6,25.6,30.22,NE,37,5.0,7.0,57,0.00,,,0.00,Wunderground v.1.15,2013-01-21 20:47:00,
2013-01-21 12:48:00,39.7,25.7,30.22,ESE,104,5.0,7.0,57,0.00,,,0.00,Wunderground v.1.15,2013-01-21 20:48:00,
2013-01-21 12:52:00,40.2,26.2,30.22,ENE,77,4.0,5.0,57,0.00,,,0.00,Wunderground v.1.15,2013-01-21 20:52:00,
2013-01-21 12:53:00,40.2,25.7,30.22,SE,134,4.0,5.0,56,0.00,,,0.00,Wunderground v.1.15,2013-01-21 20:53:00,
2013-01-21 12:54:00,40.2,25.7,30.22,SE,132,4.0,7.0,56,0.00,,,0.00,Wunderground v.1.15,2013-01-21 20:54:00,
2013-01-21 12:59:00,40.2,25.7,30.22,East,79,4.0,7.0,56,0.00,,,0.00,Wunderground v.1.15,2013-01-21 20:59:00,
2013-01-21 13:01:00,40.4,25.9,30.22,East,79,4.0,4.0,56,0.00,,,0.00,Wunderground v.1.15,2013-01-21 21:01:00,
2013-01-21 13:02:00,40.4,25.5,30.22,NE,41,4.0,4.0,55,0.00,,,0.00,Wunderground v.1.15,2013-01-21 21:02:00,
2013-01-21 13:05:00,40.6,26.1,30.22,East,79,4.0,8.0,56,0.00,,,0.00,Wunderground v.1.15,2013-01-21 21:05:00,
2013-01-21 13:06:00,40.6,25.7,30.22,ENE,64,4.0,8.0,55,0.00,,,0.00,Wunderground v.1.15,2013-01-21 21:06:00,
2013-01-21 13:09:00,40.9,26.0,30.22,East,89,3.0,8.0,55,0.00,,,0.00,Wunderground v.1.15,2013-01-21 21:09:00,
2013-01-21 13:10:00,41.0,26.1,30.22,ENE,57,3.0,8.0,55,0.00,,,0.00,Wunderground v.1.15,2013-01-21 21:10:00,
2013-01-21 13:11:00,41.1,26.1,30.22,East,91,3.0,3.0,55,0.00,,,0.00,Wunderground v.1.15,2013-01-21 21:11:00,
2013-01-21 13:13:00,41.2,26.2,30.21,NE,50,3.0,3.0,55,0.00,,,0.00,Wunderground v.1.15,2013-01-21 21:13:00,
2013-01-21 13:16:00,41.5,26.1,30.21,ESE,103,3.0,3.0,54,0.00,,,0.00,Wunderground v.1.15,2013-01-21 21:16:00,
2013-01-21 13:19:00,41.5,26.1,30.21,NE,56,3.0,7.0,54,0.00,,,0.00,Wunderground v.1.15,2013-01-21 21:19:00,
2013-01-21 13:21:00,41.6,26.2,30.21,NE,50,3.0,4.0,54,0.00,,,0.00,Wunderground v.1.15,2013-01-21 21:21:00,
2013-01-21 13:22:00,41.6,26.2,30.21,ENE,65,3.0,4.0,54,0.00,,,0.00,Wunderground v.1.15,2013-01-21 21:22:00,
2013-01-21 13:27:00,41.8,25.9,30.21,ENE,72,4.0,4.0,53,0.00,,,0.00,Wunderground v.1.15,2013-01-21 21:27:00,
2013-01-21 13:28:00,41.9,26.0,30.21,NNE,29,4.0,4.0,53,0.00,,,0.00,Wunderground v.1.15,2013-01-21 21:28:00,
2013-01-21 13:30:00,42.0,25.6,30.21,SE,141,4.0,6.0,52,0.00,,,0.00,Wunderground v.1.15,2013-01-21 21:30:00,
2013-01-21 13:31:00,42.0,26.1,30.21,ENE,68,4.0,8.0,53,0.00,,,0.00,Wunderground v.1.15,2013-01-21 21:31:00,
2013-01-21 13:33:00,42.2,26.3,30.21,ENE,66,4.0,8.0,53,0.00,,,0.00,Wunderground v.1.15,2013-01-21 21:33:00,
2013-01-21 13:34:00,42.2,25.8,30.20,ESE,107,4.0,8.0,52,0.00,,,0.00,Wunderground v.1.15,2013-01-21 21:34:00,
2013-01-21 13:36:00,42.3,25.9,30.20,ESE,110,4.0,8.0,52,0.00,,,0.00,Wunderground v.1.15,2013-01-21 21:36:00,
2013-01-21 13:37:00,42.3,25.9,30.20,ESE,119,4.0,8.0,52,0.00,,,0.00,Wunderground v.1.15,2013-01-21 21:37:00,
2013-01-21 13:39:00,42.3,25.9,30.20,SE,127,5.0,10.0,52,0.00,,,0.00,Wunderground v.1.15,2013-01-21 21:39:00,
2013-01-21 13:40:00,42.3,25.4,30.20,ESE,105,5.0,10.0,51,0.00,,,0.00,Wunderground v.1.15,2013-01-21 21:40:00,
2013-01-21 13:42:00,42.4,26.0,30.20,ESE,123,4.0,5.0,52,0.00,,,0.00,Wunderground v.1.15,2013-01-21 21:42:00,
2013-01-21 13:43:00,42.5,26.1,30.20,SE,145,4.0,7.0,52,0.00,,,0.00,Wunderground v.1.15,2013-01-21 21:43:00,
2013-01-21 13:47:00,42.6,25.7,30.20,East,97,4.0,8.0,51,0.00,,,0.00,Wunderground v.1.15,2013-01-21 21:47:00,
2013-01-21 13:48:00,42.6,26.2,30.20,NE,50,4.0,8.0,52,0.00,,,0.00,Wunderground v.1.15,2013-01-21 21:48:00,
2013-01-21 13:49:00,42.5,25.6,30.20,ENE,65,4.0,8.0,51,0.00,,,0.00,Wunderground v.1.15,2013-01-21 21:49:00,
2013-01-21 13:50:00,42.5,25.6,30.20,ENE,68,4.0,8.0,51,0.00,,,0.00,Wunderground v.1.15,2013-01-21 21:50:00,
2013-01-21 13:54:00,42.3,25.4,30.20,SE,128,4.0,10.0,51,0.00,,,0.00,Wunderground v.1.15,2013-01-21 21:54:00,
2013-01-21 13:55:00,42.3,25.9,30.20,ENE,61,5.0,10.0,52,0.00,,,0.00,Wunderground v.1.15,2013-01-21 21:55:00,
2013-01-21 13:56:00,42.3,25.9,30.20,NE,46,5.0,10.0,52,0.00,,,0.00,Wunderground v.1.15,2013-01-21 21:56:00,
2013-01-21 14:01:00,42.5,26.1,30.20,ENE,68,4.0,5.0,52,0.00,,,0.00,Wunderground v.1.15,2013-01-21 22:01:00,
2013-01-21 14:03:00,42.6,26.2,30.20,East,79,4.0,5.0,52,0.00,,,0.00,Wunderground v.1.15,2013-01-21 22:03:00,
2013-01-21 14:06:00,42.5,25.6,30.20,NE,51,4.0,5.0,51,0.00,,,0.00,Wunderground v.1.15,2013-01-21 22:06:00,
2013-01-21 14:07:00,42.4,25.5,30.20,East,82,4.0,5.0,51,0.00,,,0.00,Wunderground v.1.15,2013-01-21 22:07:00,
2013-01-21 14:10:00,42.2,25.8,30.20,East,95,4.0,5.0,52,0.00,,,0.00,Wunderground v.1.15,2013-01-21 22:10:00,
2013-01-21 14:12:00,42.3,25.9,30.20,ENE,63,4.0,4.0,52,0.00,,,0.00,Wunderground v.1.15,2013-01-21 22:12:00,
2013-01-21 14:13:00,42.4,26.5,30.20,NE,37,4.0,7.0,53,0.00,,,0.00,Wunderground v.1.15,2013-01-21 22:13:00,
2013-01-21 14:15:00,42.3,25.9,30.20,East,91,4.0,7.0,52,0.00,,,0.00,Wunderground v.1.15,2013-01-21 22:15:00,
2013-01-21 14:18:00,42.4,26.0,30.20,ENE,65,3.0,7.0,52,0.00,,,0.00,Wunderground v.1.15,2013-01-21 22:18:00,
2013-01-21 14:19:00,42.4,26.0,30.20,ENE,64,3.0,7.0,52,0.00,,,0.00,Wunderground v.1.15,2013-01-21 22:19:00,
2013-01-21 14:20:00,42.5,26.1,30.20,ESE,110,3.0,7.0,52,0.00,,,0.00,Wunderground v.1.15,2013-01-21 22:20:00,
2013-01-21 14:21:00,42.6,26.2,30.20,East,93,3.0,3.0,52,0.00,,,0.00,Wunderground v.1.15,2013-01-21 22:21:00,
2013-01-21 14:24:00,42.8,25.9,30.20,NE,46,3.0,3.0,51,0.00,,,0.00,Wunderground v.1.15,2013-01-21 22:24:00,
2013-01-21 14:27:00,42.9,26.0,30.20,ENE,72,2.0,4.0,51,0.00,,,0.00,Wunderground v.1.15,2013-01-21 22:27:00,
2013-01-21 14:29:00,42.9,26.0,30.20,ESE,120,2.0,4.0,51,0.00,,,0.00,Wunderground v.1.15,2013-01-21 22:29:00,
2013-01-21 14:30:00,42.8,25.4,30.20,ESE,109,3.0,4.0,50,0.00,,,0.00,Wunderground v.1.15,2013-01-21 22:30:00,
2013-01-21 14:32:00,42.7,25.8,30.20,ENE,58,3.0,5.0,51,0.00,,,0.00,Wunderground v.1.15,2013-01-21 22:32:00,
2013-01-21 14:33:00,42.7,25.8,30.19,East,93,3.0,5.0,51,0.00,,,0.00,Wunderground v.1.15,2013-01-21 22:33:00,
2013-01-21 14:36:00,42.7,25.8,30.19,ENE,75,3.0,5.0,51,0.00,,,0.00,Wunderground v.1.15,2013-01-21 22:36:00,
2013-01-21 14:39:00,42.9,26.5,30.19,East,96,3.0,5.0,52,0.00,,,0.00,Wunderground v.1.15,2013-01-21 22:39:00,
2013-01-21 14:41:00,43.0,26.1,30.19,ESE,118,2.0,3.0,51,0.00,,,0.00,Wunderground v.1.15,2013-01-21 22:41:00,
2013-01-21 14:45:00,42.9,26.0,30.19,ESE,107,2.0,6.0,51,0.00,,,0.00,Wunderground v.1.15,2013-01-21 22:45:00,
2013-01-21 14:46:00,42.9,26.0,30.20,East,82,3.0,6.0,51,0.00,,,0.00,Wunderground v.1.15,2013-01-21 22:46:00,
2013-01-21 14:48:00,42.8,25.4,30.20,SE,136,3.0,6.0,50,0.00,,,0.00,Wunderground v.1.15,2013-01-21 22:48:00,
2013-01-21 14:51:00,42.7,25.3,30.20,SE,131,3.0,3.0,50,0.00,,,0.00,Wunderground v.1.15,2013-01-21 22:51:00,
2013-01-21 14:52:00,42.6,25.7,30.20,ESE,103,4.0,4.0,51,0.00,,,0.00,Wunderground v.1.15,2013-01-21 22:52:00,
2013-01-21 14:54:00,42.5,25.6,30.19,ESE,115,4.0,5.0,51,0.00,,,0.00,Wunderground v.1.15,2013-01-21 22:54:00,
2013-01-21 14:57:00,42.5,25.6,30.19,ESE,113,4.0,5.0,51,0.00,,,0.00,Wunderground v.1.15,2013-01-21 22:57:00,
2013-01-21 14:58:00,42.5,25.6,30.19,ESE,103,4.0,5.0,51,0.00,,,0.00,Wunderground v.1.15,2013-01-21 22:58:00,
2013-01-21 15:01:00,42.7,26.3,30.19,ENE,57,3.0,3.0,52,0.00,,,0.00,Wunderground v.1.15,2013-01-21 23:01:00,
2013-01-21 15:03:00,42.7,25.8,30.19,ESE,110,3.0,5.0,51,0.00,,,0.00,Wunderground v.1.15,2013-01-21 23:03:00,
2013-01-21 15:06:00,42.6,25.7,30.19,SE,130,3.0,5.0,51,0.00,,,0.00,Wunderground v.1.15,2013-01-21 23:06:00,
2013-01-21 15:07:00,42.6,25.7,30.19,SSE,159,3.0,5.0,51,0.00,,,0.00,Wunderground v.1.15,2013-01-21 23:07:00,
2013-01-21 15:08:00,42.5,25.6,30.19,East,91,3.0,6.0,51,0.00,,,0.00,Wunderground v.1.15,2013-01-21 23:08:00,
2013-01-21 15:14:00,42.3,25.9,30.19,ENE,70,3.0,4.0,52,0.00,,,0.00,Wunderground v.1.15,2013-01-21 23:14:00,
2013-01-21 15:15:00,42.3,25.9,30.20,ENE,58,3.0,4.0,52,0.00,,,0.00,Wunderground v.1.15,2013-01-21 23:15:00,
2013-01-21 15:19:00,42.3,25.9,30.20,ENE,77,3.0,5.0,52,0.00,,,0.00,Wunderground v.1.15,2013-01-21 23:19:00,
2013-01-21 15:20:00,42.2,25.8,30.20,NE,53,3.0,9.0,52,0.00,,,0.00,Wunderground v.1.15,2013-01-21 23:20:00,
2013-01-21 15:22:00,42.0,25.6,30.20,East,89,3.0,3.0,52,0.00,,,0.00,Wunderground v.1.15,2013-01-21 23:22:00,
2013-01-21 15:24:00,41.9,25.5,30.20,ENE,75,4.0,4.0,52,0.00,,,0.00,Wunderground v.1.15,2013-01-21 23:24:00,
2013-01-21 15:28:00,41.7,25.4,30.20,East,84,4.0,6.0,52,0.00,,,0.00,Wunderground v.1.15,2013-01-21 23:28:00,
2013-01-21 15:29:00,41.7,25.8,30.19,ENE,65,4.0,6.0,53,0.00,,,0.00,Wunderground v.1.15,2013-01-21 23:29:00,
2013-01-21 15:31:00,41.6,25.3,30.19,ENE,68,4.0,7.0,52,0.00,,,0.00,Wunderground v.1.15,2013-01-21 23:31:00,
2013-01-21 15:33:00,41.5,25.6,30.19,NE,43,4.0,7.0,53,0.00,,,0.00,Wunderground v.1.15,2013-01-21 23:33:00,
2013-01-21 15:34:00,41.5,25.6,30.19,NE,51,4.0,8.0,53,0.00,,,0.00,Wunderground v.1.15,2013-01-21 23:34:00,
2013-01-21 15:36:00,41.5,25.6,30.19,ENE,66,4.0,8.0,53,0.00,,,0.00,Wunderground v.1.15,2013-01-21 23:36:00,
2013-01-21 15:39:00,41.5,25.6,30.19,SE,127,4.0,8.0,53,0.00,,,0.00,Wunderground v.1.15,2013-01-21 23:39:00,
2013-01-21 15:40:00,41.5,25.6,30.19,SE,124,4.0,10.0,53,0.00,,,0.00,Wunderground v.1.15,2013-01-21 23:40:00,
2013-01-21 15:41:00,41.5,25.6,30.19,ESE,102,4.0,4.0,53,0.00,,,0.00,Wunderground v.1.15,2013-01-21 23:41:00,
2013-01-21 15:42:00,41.4,25.5,30.19,ENE,68,4.0,5.0,53,0.00,,,0.00,Wunderground v.1.15,2013-01-21 23:42:00,
2013-01-21 15:47:00,41.2,25.8,30.19,ENE,65,3.0,7.0,54,0.00,,,0.00,Wunderground v.1.15,2013-01-21 23:47:00,
2013-01-21 15:48:00,41.2,25.8,30.19,SE,124,3.0,7.0,54,0.00,,,0.00,Wunderground v.1.15,2013-01-21 23:48:00,
2013-01-21 15:49:00,41.2,25.8,30.19,ENE,77,3.0,7.0,54,0.00,,,0.00,Wunderground v.1.15,2013-01-21 23:49:00,
2013-01-21 15:51:00,41.0,25.6,30.19,ESE,108,3.0,4.0,54,0.00,,,0.00,Wunderground v.1.15,2013-01-21 23:51:00,
2013-01-21 15:54:00,40.7,25.3,30.19,East,94,3.0,9.0,54,0.00,,,0.00,Wunderground v.1.15,2013-01-21 23:54:00,
2013-01-21 15:55:00,40.6,25.7,30.19,ESE,106,4.0,9.0,55,0.00,,,0.00,Wunderground v.1.15,2013-01-21 23:55:00,
2013-01-21 16:01:00,40.1,25.6,30.19,NE,34,3.0,3.0,56,0.00,,,0.00,Wunderground v.1.15,2013-01-22 00:01:00,
2013-01-21 16:02:00,40.0,25.6,30.19,East,81,3.0,3.0,56,0.00,,,0.00,Wunderground v.1.15,2013-01-22 00:02:00,
2013-01-21 16:03:00,39.9,25.5,30.19,ENE,62,3.0,3.0,56,0.00,,,0.00,Wunderground v.1.15,2013-01-22 00:03:00,
2013-01-21 16:06:00,39.7,25.7,30.19,ENE,70,3.0,4.0,57,0.00,,,0.00,Wunderground v.1.15,2013-01-22 00:06:00,
2013-01-21 16:08:00,39.5,25.5,30.19,ENE,58,4.0,10.0,57,0.00,,,0.00,Wunderground v.1.15,2013-01-22 00:08:00,
2013-01-21 16:09:00,39.4,25.4,30.19,NE,35,4.0,10.0,57,0.00,,,0.00,Wunderground v.1.15,2013-01-22 00:09:00,
2013-01-21 16:13:00,39.2,25.6,30.19,NE,37,3.0,3.0,58,0.00,,,0.00,Wunderground v.1.15,2013-01-22 00:13:00,
2013-01-21 16:14:00,39.1,25.6,30.19,ESE,117,3.0,3.0,58,0.00,,,0.00,Wunderground v.1.15,2013-01-22 00:14:00,
2013-01-21 16:17:00,38.8,25.3,30.19,SE,136,3.0,4.0,58,0.00,,,0.00,Wunderground v.1.15,2013-01-22 00:17:00,
2013-01-21 16:19:00,38.6,25.5,30.19,ESE,117,3.0,4.0,59,0.00,,,0.00,Wunderground v.1.15,2013-01-22 00:19:00,
2013-01-21 16:23:00,38.2,25.1,30.19,East,94,4.0,11.0,59,0.00,,,0.00,Wunderground v.1.15,2013-01-22 00:23:00,
2013-01-21 16:26:00,38.0,25.3,30.19,ENE,57,4.0,11.0,60,0.00,,,0.00,Wunderground v.1.15,2013-01-22 00:26:00,
2013-01-21 16:28:00,37.9,25.2,30.19,East,81,4.0,11.0,60,0.00,,,0.00,Wunderground v.1.15,2013-01-22 00:28:00,
2013-01-21 16:32:00,37.6,25.4,30.19,SE,143,3.0,3.0,61,0.00,,,0.00,Wunderground v.1.15,2013-01-22 00:32:00,
2013-01-21 16:36:00,37.4,25.2,30.19,ENE,57,3.0,5.0,61,0.00,,,0.00,Wunderground v.1.15,2013-01-22 00:36:00,
2013-01-21 16:37:00,37.4,25.2,30.19,East,88,3.0,5.0,61,0.00,,,0.00,Wunderground v.1.15,2013-01-22 00:37:00,
2013-01-21 16:38:00,37.3,25.1,30.19,NE,50,3.0,5.0,61,0.00,,,0.00,Wunderground v.1.15,2013-01-22 00:38:00,
2013-01-21 16:39:00,37.2,25.0,30.19,ENE,77,3.0,5.0,61,0.00,,,0.00,Wunderground v.1.15,2013-01-22 00:39:00,
2013-01-21 16:41:00,37.1,25.3,30.19,East,91,3.0,3.0,62,0.00,,,0.00,Wunderground v.1.15,2013-01-22 00:41:00,
2013-01-21 16:44:00,36.9,25.1,30.19,ESE,110,3.0,4.0,62,0.00,,,0.00,Wunderground v.1.15,2013-01-22 00:44:00,
2013-01-21 16:46:00,36.8,25.0,30.19,NE,47,3.0,4.0,62,0.00,,,0.00,Wunderground v.1.15,2013-01-22 00:46:00,
2013-01-21 16:50:00,36.6,25.2,30.19,East,86,3.0,4.0,63,0.00,,,0.00,Wunderground v.1.15,2013-01-22 00:50:00,
2013-01-21 16:51:00,36.6,25.2,30.19,NE,54,3.0,3.0,63,0.00,,,0.00,Wunderground v.1.15,2013-01-22 00:51:00,
2013-01-21 16:54:00,36.4,25.0,30.20,East,80,3.0,3.0,63,0.00,,,0.00,Wunderground v.1.15,2013-01-22 00:54:00,
2013-01-21 16:56:00,36.3,25.3,30.20,ENE,70,3.0,3.0,64,0.00,,,0.00,Wunderground v.1.15,2013-01-22 00:56:00,
2013-01-21 16:57:00,36.2,25.2,30.20,ENE,72,2.0,3.0,64,0.00,,,0.00,Wunderground v.1.15,2013-01-22 00:57:00,
2013-01-21 17:01:00,36.1,25.1,30.20,SE,132,2.0,3.0,64,0.00,,,0.00,Wunderground v.1.15,2013-01-22 01:01:00,
2013-01-21 17:03:00,36.1,25.1,30.20,ENE,70,2.0,4.0,64,0.00,,,0.00,Wunderground v.1.15,2013-01-22 01:03:00,
2013-01-21 17:09:00,35.7,25.1,30.19,ENE,63,3.0,4.0,65,0.00,,,0.00,Wunderground v.1.15,2013-01-22 01:09:00,
2013-01-21 17:10:00,35.6,25.0,30.19,East,98,3.0,4.0,65,0.00,,,0.00,Wunderground v.1.15,2013-01-22 01:10:00,
2013-01-21 17:14:00,35.5,24.9,30.19,NE,43,2.0,5.0,65,0.00,,,0.00,Wunderground v.1.15,2013-01-22 01:14:00,
2013-01-21 17:16:00,35.4,24.8,30.19,ENE,60,2.0,5.0,65,0.00,,,0.00,Wunderground v.1.15,2013-01-22 01:16:00,
2013-01-21 17:18:00,35.3,24.7,30.19,ENE,65,2.0,5.0,65,0.00,,,0.00,Wunderground v.1.15,2013-01-22 01:18:00,
2013-01-21 17:20:00,35.3,25.1,30.19,NE,47,2.0,5.0,66,0.00,,,0.00,Wunderground v.1.15,2013-01-22 01:20:00,
2013-01-21 17:21:00,35.2,25.0,30.19,NE,48,2.0,2.0,66,0.00,,,0.00,Wunderground v.1.15,2013-01-22 01:21:00,
2013-01-21 17:24:00,35.0,24.8,30.19,East,82,2.0,2.0,66,0.00,,,0.00,Wunderground v.1.15,2013-01-22 01:24:00,
2013-01-21 17:25:00,35.0,24.8,30.19,NE,47,2.0,2.0,66,0.00,,,0.00,Wunderground v.1.15,2013-01-22 01:25:00,
2013-01-21 17:29:00,34.9,24.7,30.18,East,83,1.0,3.0,66,0.00,,,0.00,Wunderground v.1.15,2013-01-22 01:29:00,
2013-01-21 17:30:00,34.8,24.6,30.19,NE,55,1.0,3.0,66,0.00,,,0.00,Wunderground v.1.15,2013-01-22 01:30:00,
2013-01-21 17:31:00,34.8,25.0,30.18,East,80,2.0,3.0,67,0.00,,,0.00,Wunderground v.1.15,2013-01-22 01:31:00,
2013-01-21 17:32:00,34.8,25.0,30.19,East,81,2.0,3.0,67,0.00,,,0.00,Wunderground v.1.15,2013-01-22 01:32:00,
2013-01-21 17:36:00,34.7,24.9,30.18,ESE,119,2.0,4.0,67,0.00,,,0.00,Wunderground v.1.15,2013-01-22 01:36:00,
2013-01-21 17:38:00,34.6,24.8,30.18,ENE,74,2.0,4.0,67,0.00,,,0.00,Wunderground v.1.15,2013-01-22 01:38:00,
2013-01-21 17:39:00,34.6,24.8,30.18,ENE,65,2.0,4.0,67,0.00,,,0.00,Wunderground v.1.15,2013-01-22 01:39:00,
2013-01-21 17:44:00,34.7,24.9,30.18,East,79,2.0,8.0,67,0.00,,,0.00,Wunderground v.1.15,2013-01-22 01:44:00,
2013-01-21 17:45:00,34.7,24.9,30.18,ENE,70,2.0,8.0,67,0.00,,,0.00,Wunderground v.1.15,2013-01-22 01:45:00,
2013-01-21 17:48:00,34.8,25.0,30.18,ENE,68,3.0,8.0,67,0.00,,,0.00,Wunderground v.1.15,2013-01-22 01:48:00,
2013-01-21 17:51:00,34.8,25.0,30.18,East,101,3.0,8.0,67,0.00,,,0.00,Wunderground v.1.15,2013-01-22 01:51:00,
2013-01-21 17:52:00,34.8,24.6,30.18,East,85,3.0,3.0,66,0.00,,,0.00,Wunderground v.1.15,2013-01-22 01:52:00,
2013-01-21 17:54:00,34.8,24.6,30.18,East,82,3.0,9.0,66,0.00,,,0.00,Wunderground v.1.15,2013-01-22 01:54:00,
2013-01-21 17:57:00,34.7,24.5,30.18,ENE,58,3.0,9.0,66,0.00,,,0.00,Wunderground v.1.15,2013-01-22 01:57:00,
2013-01-21 18:00:00,34.7,24.9,30.18,ENE,61,3.0,9.0,67,0.00,,,0.00,Wunderground v.1.15,2013-01-22 02:00:00,
2013-01-21 18:01:00,34.6,24.8,30.18,ENE,73,3.0,4.0,67,0.00,,,0.00,Wunderground v.1.15,2013-01-22 02:01:00,
2013-01-21 18:05:00,34.5,24.7,30.18,East,94,3.0,4.0,67,0.00,,,0.00,Wunderground v.1.15,2013-01-22 02:05:00,
2013-01-21 18:06:00,34.5,24.7,30.18,ENE,74,3.0,4.0,67,0.00,,,0.00,Wunderground v.1.15,2013-01-22 02:06:00,
2013-01-21 18:10:00,34.3,24.8,30.18,East,99,3.0,4.0,68,0.00,,,0.00,Wunderground v.1.15,2013-01-22 02:10:00,
2013-01-21 18:11:00,34.3,24.8,30.18,East,101,2.0,2.0,68,0.00,,,0.00,Wunderground v.1.15,2013-01-22 02:11:00,
2013-01-21 18:12:00,34.3,24.8,30.18,ENE,59,2.0,2.0,68,0.00,,,0.00,Wunderground v.1.15,2013-01-22 02:12:00,
2013-01-21 18:14:00,34.2,24.7,30.18,East,88,2.0,3.0,68,0.00,,,0.00,Wunderground v.1.15,2013-01-22 02:14:00,
2013-01-21 18:18:00,34.0,24.5,30.19,NE,47,1.0,3.0,68,0.00,,,0.00,Wunderground v.1.15,2013-01-22 02:18:00,
2013-01-21 18:19:00,34.0,24.9,30.19,NE,55,1.0,3.0,69,0.00,,,0.00,Wunderground v.1.15,2013-01-22 02:19:00,
2013-01-21 18:21:00,34.0,24.9,30.19,ENE,70,1.0,2.0,69,0.00,,,0.00,Wunderground v.1.15,2013-01-22 02:21:00,
2013-01-21 18:23:00,33.9,24.8,30.19,NE,51,1.0,2.0,69,0.00,,,0.00,Wunderground v.1.15,2013-01-22 02:23:00,
2013-01-21 18:24:00,33.9,24.8,30.19,East,89,1.0,2.0,69,0.00,,,0.00,Wunderground v.1.15,2013-01-22 02:24:00,
2013-01-21 18:27:00,33.9,24.8,30.19,East,86,1.0,3.0,69,0.00,,,0.00,Wunderground v.1.15,2013-01-22 02:27:00,
2013-01-21 18:28:00,33.8,24.7,30.19,ENE,68,1.0,3.0,69,0.00,,,0.00,Wunderground v.1.15,2013-01-22 02:28:00,
2013-01-21 18:33:00,33.7,24.6,30.19,East,86,1.0,4.0,69,0.00,,,0.00,Wunderground v.1.15,2013-01-22 02:33:00,
2013-01-21 18:34:00,33.7,24.6,30.19,ENE,71,1.0,4.0,69,0.00,,,0.00,Wunderground v.1.15,2013-01-22 02:34:00,
2013-01-21 18:36:00,33.7,24.6,30.18,ESE,122,1.0,4.0,69,0.00,,,0.00,Wunderground v.1.15,2013-01-22 02:36:00,
2013-01-21 18:39:00,33.6,24.5,30.19,NE,49,2.0,4.0,69,0.00,,,0.00,Wunderground v.1.15,2013-01-22 02:39:00,
2013-01-21 18:45:00,33.5,24.8,30.19,ENE,74,1.0,2.0,70,0.00,,,0.00,Wunderground v.1.15,2013-01-22 02:45:00,
2013-01-21 18:49:00,33.4,24.7,30.19,ENE,58,1.0,2.0,70,0.00,,,0.00,Wunderground v.1.15,2013-01-22 02:49:00,
2013-01-21 18:51:00,33.4,24.7,30.19,NE,54,1.0,3.0,70,0.00,,,0.00,Wunderground v.1.15,2013-01-22 02:51:00,
2013-01-21 18:54:00,33.5,24.8,30.20,East,93,1.0,3.0,70,0.00,,,0.00,Wunderground v.1.15,2013-01-22 02:54:00,
2013-01-21 18:55:00,33.5,24.8,30.20,ENE,58,1.0,3.0,70,0.00,,,0.00,Wunderground v.1.15,2013-01-22 02:55:00,
2013-01-21 18:57:00,33.5,24.8,30.20,ENE,58,1.0,3.0,70,0.00,,,0.00,Wunderground v.1.15,2013-01-22 02:57:00,
2013-01-21 19:00:00,33.4,24.7,30.20,ENE,72,1.0,3.0,70,0.00,,,0.00,Wunderground v.1.15,2013-01-22 03:00:00,
2013-01-21 19:03:00,33.3,24.6,30.20,ENE,72,0.0,1.0,70,0.00,,,0.00,Wunderground v.1.15,2013-01-22 03:03:00,
2013-01-21 19:04:00,33.3,24.6,30.20,ENE,68,0.0,1.0,70,0.00,,,0.00,Wunderground v.1.15,2013-01-22 03:04:00,
2013-01-21 19:05:00,33.2,24.5,30.20,ENE,64,0.0,1.0,70,0.00,,,0.00,Wunderground v.1.15,2013-01-22 03:05:00,
2013-01-21 19:10:00,32.9,24.5,30.20,ENE,65,0.0,1.0,71,0.00,,,0.00,Wunderground v.1.15,2013-01-22 03:10:00,
2013-01-21 19:11:00,32.8,24.4,30.20,ENE,65,0.0,0.0,71,0.00,,,0.00,Wunderground v.1.15,2013-01-22 03:11:00,
2013-01-21 19:15:00,32.6,24.6,30.20,ENE,70,0.0,0.0,72,0.00,,,0.00,Wunderground v.1.15,2013-01-22 03:15:00,
2013-01-21 19:19:00,32.5,24.5,30.20,ENE,65,0.0,0.0,72,0.00,,,0.00,Wunderground v.1.15,2013-01-22 03:19:00,
2013-01-21 19:20:00,32.5,24.5,30.20,ENE,65,0.0,0.0,72,0.00,,,0.00,Wunderground v.1.15,2013-01-22 03:20:00,
2013-01-21 19:25:00,32.6,24.6,30.20,ENE,61,0.0,3.0,72,0.00,,,0.00,Wunderground v.1.15,2013-01-22 03:25:00,
2013-01-21 19:26:00,32.7,24.7,30.20,ENE,65,1.0,3.0,72,0.00,,,0.00,Wunderground v.1.15,2013-01-22 03:26:00,
2013-01-21 19:27:00,32.7,24.7,30.20,ENE,58,1.0,4.0,72,0.00,,,0.00,Wunderground v.1.15,2013-01-22 03:27:00,
2013-01-21 19:28:00,32.8,24.8,30.20,East,86,1.0,4.0,72,0.00,,,0.00,Wunderground v.1.15,2013-01-22 03:28:00,
2013-01-21 19:31:00,32.8,24.8,30.20,ENE,58,2.0,4.0,72,0.00,,,0.00,Wunderground v.1.15,2013-01-22 03:31:00,
2013-01-21 19:33:00,32.8,24.8,30.20,NE,52,2.0,4.0,72,0.00,,,0.00,Wunderground v.1.15,2013-01-22 03:33:00,
2013-01-21 19:34:00,32.7,24.7,30.20,NE,51,2.0,4.0,72,0.00,,,0.00,Wunderground v.1.15,2013-01-22 03:34:00,
2013-01-21 19:35:00,32.7,24.7,30.20,NE,40,2.0,4.0,72,0.00,,,0.00,Wunderground v.1.15,2013-01-22 03:35:00,
2013-01-21 19:39:00,32.7,24.7,30.20,ENE,77,2.0,4.0,72,0.00,,,0.00,Wunderground v.1.15,2013-01-22 03:39:00,
2013-01-21 19:44:00,32.6,24.6,30.20,ENE,60,2.0,5.0,72,0.00,,,0.00,Wunderground v.1.15,2013-01-22 03:44:00,
2013-01-21 19:45:00,32.6,24.9,30.20,NE,47,3.0,5.0,73,0.00,,,0.00,Wunderground v.1.15,2013-01-22 03:45:00,
2013-01-21 19:49:00,32.6,24.9,30.19,ENE,59,3.0,6.0,73,0.00,,,0.00,Wunderground v.1.15,2013-01-22 03:49:00,
2013-01-21 19:50:00,32.6,24.9,30.19,East,79,3.0,6.0,73,0.00,,,0.00,Wunderground v.1.15,2013-01-22 03:50:00,
2013-01-21 19:51:00,32.6,24.9,30.19,ESE,108,3.0,3.0,73,0.00,,,0.00,Wunderground v.1.15,2013-01-22 03:51:00,
2013-01-21 19:53:00,32.6,24.9,30.19,East,98,3.0,3.0,73,0.00,,,0.00,Wunderground v.1.15,2013-01-22 03:53:00,
2013-01-21 19:56:00,32.5,24.8,30.19,ENE,75,3.0,3.0,73,0.00,,,0.00,Wunderground v.1.15,2013-01-22 03:56:00,
2013-01-21 19:58:00,32.5,24.8,30.19,ENE,61,2.0,4.0,73,0.00,,,0.00,Wunderground v.1.15,2013-01-22 03:58:00,
2013-01-21 19:59:00,32.5,24.8,30.19,ENE,70,2.0,4.0,73,0.00,,,0.00,Wunderground v.1.15,2013-01-22 03:59:00,
2013-01-21 20:03:00,32.6,24.9,30.19,ENE,77,2.0,2.0,73,0.00,,,0.00,Wunderground v.1.15,2013-01-22 04:03:00,
2013-01-21 20:05:00,32.6,24.9,30.19,ENE,65,2.0,3.0,73,0.00,,,0.00,Wunderground v.1.15,2013-01-22 04:05:00,
2013-01-21 20:07:00,32.6,24.9,30.19,ENE,68,2.0,4.0,73,0.00,,,0.00,Wunderground v.1.15,2013-01-22 04:07:00,
2013-01-21 20:08:00,32.6,24.9,30.19,ENE,70,2.0,9.0,73,0.00,,,0.00,Wunderground v.1.15,2013-01-22 04:08:00,
2013-01-21 20:12:00,32.8,24.8,30.19,ENE,63,2.0,3.0,72,0.00,,,0.00,Wunderground v.1.15,2013-01-22 04:12:00,
2013-01-21 20:13:00,32.8,24.8,30.19,NE,52,2.0,3.0,72,0.00,,,0.00,Wunderground v.1.15,2013-01-22 04:13:00,
2013-01-21 20:14:00,32.8,24.8,30.19,East,99,2.0,3.0,72,0.00,,,0.00,Wunderground v.1.15,2013-01-22 04:14:00,
2013-01-21 20:19:00,32.8,24.8,30.19,ENE,63,2.0,4.0,72,0.00,,,0.00,Wunderground v.1.15,2013-01-22 04:19:00,
2013-01-21 20:21:00,32.8,24.8,30.19,NE,53,2.0,6.0,72,0.00,,,0.00,Wunderground v.1.15,2013-01-22 04:21:00,
2013-01-21 20:23:00,32.9,24.9,30.19,ENE,63,3.0,5.0,72,0.00,,,0.00,Wunderground v.1.15,2013-01-22 04:23:00,
2013-01-21 20:25:00,32.9,24.5,30.19,ENE,78,3.0,5.0,71,0.00,,,0.00,Wunderground v.1.15,2013-01-22 04:25:00,
2013-01-21 20:26:00,33.0,24.6,30.19,East,82,3.0,5.0,71,0.00,,,0.00,Wunderground v.1.15,2013-01-22 04:26:00,
2013-01-21 20:28:00,33.0,24.6,30.19,East,82,4.0,7.0,71,0.00,,,0.00,Wunderground v.1.15,2013-01-22 04:28:00,
2013-01-21 20:31:00,32.9,24.5,30.19,ESE,108,3.0,3.0,71,0.00,,,0.00,Wunderground v.1.15,2013-01-22 04:31:00,
2013-01-21 20:33:00,32.8,24.8,30.19,ESE,108,2.0,3.0,72,0.00,,,0.00,Wunderground v.1.15,2013-01-22 04:33:00,
2013-01-21 20:36:00,32.7,24.7,30.19,NE,44,2.0,3.0,72,0.00,,,0.00,Wunderground v.1.15,2013-01-22 04:36:00,
2013-01-21 20:37:00,32.8,24.8,30.19,ENE,63,2.0,3.0,72,0.00,,,0.00,Wunderground v.1.15,2013-01-22 04:37:00,
2013-01-21 20:42:00,32.8,24.8,30.19,NE,51,2.0,2.0,72,0.00,,,0.00,Wunderground v.1.15,2013-01-22 04:42:00,
2013-01-21 20:43:00,32.8,24.8,30.19,NE,44,2.0,2.0,72,0.00,,,0.00,Wunderground v.1.15,2013-01-22 04:43:00,
2013-01-21 20:44:00,32.7,24.7,30.19,ESE,110,2.0,3.0,72,0.00,,,0.00,Wunderground v.1.15,2013-01-22 04:44:00,
2013-01-21 20:47:00,32.7,24.7,30.19,ENE,68,2.0,3.0,72,0.00,,,0.00,Wunderground v.1.15,2013-01-22 04:47:00,
2013-01-21 20:48:00,32.7,24.7,30.19,ENE,60,2.0,3.0,72,0.00,,,0.00,Wunderground v.1.15,2013-01-22 04:48:00,
2013-01-21 20:49:00,32.6,24.6,30.19,East,82,1.0,3.0,72,0.00,,,0.00,Wunderground v.1.15,2013-01-22 04:49:00,
2013-01-21 20:52:00,32.6,24.6,30.19,ESE,116,1.0,2.0,72,0.00,,,0.00,Wunderground v.1.15,2013-01-22 04:52:00,
2013-01-21 20:53:00,32.6,24.6,30.19,SE,127,1.0,2.0,72,0.00,,,0.00,Wunderground v.1.15,2013-01-22 04:53:00,
2013-01-21 20:55:00,32.6,24.6,30.20,ESE,107,1.0,2.0,72,0.00,,,0.00,Wunderground v.1.15,2013-01-22 04:55:00,
2013-01-21 20:59:00,32.5,24.5,30.19,SE,134,1.0,2.0,72,0.00,,,0.00,Wunderground v.1.15,2013-01-22 04:59:00,
2013-01-21 21:00:00,32.5,24.5,30.19,East,83,1.0,2.0,72,0.00,,,0.00,Wunderground v.1.15,2013-01-22 05:00:00,
2013-01-21 21:01:00,32.5,24.5,30.19,ENE,74,1.0,1.0,72,0.00,,,0.00,Wunderground v.1.15,2013-01-22 05:01:00,
2013-01-21 21:03:00,32.5,24.5,30.19,NE,54,1.0,3.0,72,0.00,,,0.00,Wunderground v.1.15,2013-01-22 05:03:00,
2013-01-21 21:05:00,32.4,24.4,30.19,ENE,57,1.0,3.0,72,0.00,,,0.00,Wunderground v.1.15,2013-01-22 05:05:00,
2013-01-21 21:08:00,32.4,24.4,30.19,East,79,1.0,3.0,72,0.00,,,0.00,Wunderground v.1.15,2013-01-22 05:08:00,
2013-01-21 21:09:00,32.5,24.5,30.19,East,100,1.0,3.0,72,0.00,,,0.00,Wunderground v.1.15,2013-01-22 05:09:00,
2013-01-21 21:12:00,32.5,24.5,30.19,ESE,110,2.0,2.0,72,0.00,,,0.00,Wunderground v.1.15,2013-01-22 05:12:00,
2013-01-21 21:14:00,32.5,24.5,30.19,East,87,2.0,2.0,72,0.00,,,0.00,Wunderground v.1.15,2013-01-22 05:14:00,
2013-01-21 21:16:00,32.4,24.4,30.19,East,79,1.0,2.0,72,0.00,,,0.00,Wunderground v.1.15,2013-01-22 05:16:00,
2013-01-21 21:18:00,32.4,24.4,30.19,NE,47,1.0,2.0,72,0.00,,,0.00,Wunderground v.1.15,2013-01-22 05:18:00,
2013-01-21 21:21:00,32.3,24.6,30.19,ENE,74,1.0,1.0,73,0.00,,,0.00,Wunderground v.1.15,2013-01-22 05:21:00,
2013-01-21 21:25:00,32.2,24.5,30.19,East,94,1.0,3.0,73,0.00,,,0.00,Wunderground v.1.15,2013-01-22 05:25:00,
2013-01-21 21:28:00,32.2,24.5,30.19,NE,46,1.0,3.0,73,0.00,,,0.00,Wunderground v.1.15,2013-01-22 05:28:00,
2013-01-21 21:29:00,32.2,24.5,30.19,ESE,105,1.0,3.0,73,0.00,,,0.00,Wunderground v.1.15,2013-01-22 05:29:00,
2013-01-21 21:30:00,32.2,24.5,30.19,ENE,74,1.0,3.0,73,0.00,,,0.00,Wunderground v.1.15,2013-01-22 05:30:00,
2013-01-21 21:34:00,32.2,24.5,30.19,East,81,1.0,2.0,73,0.00,,,0.00,Wunderground v.1.15,2013-01-22 05:34:00,
2013-01-21 21:35:00,32.1,24.4,30.19,ENE,65,1.0,4.0,73,0.00,,,0.00,Wunderground v.1.15,2013-01-22 05:35:00,
2013-01-21 21:41:00,32.0,24.3,30.18,NE,54,1.0,4.0,73,0.00,,,0.00,Wunderground v.1.15,2013-01-22 05:41:00,
2013-01-21 21:42:00,32.0,24.3,30.18,ENE,61,1.0,4.0,73,0.00,,,0.00,Wunderground v.1.15,2013-01-22 05:42:00,
2013-01-21 21:43:00,32.1,24.4,30.18,East,79,1.0,4.0,73,0.00,,,0.00,Wunderground v.1.15,2013-01-22 05:43:00,
2013-01-21 21:48:00,32.1,24.4,30.19,NNE,33,1.0,4.0,73,0.00,,,0.00,Wunderground v.1.15,2013-01-22 05:48:00,
2013-01-21 21:50:00,32.3,24.6,30.19,NE,54,2.0,4.0,73,0.00,,,0.00,Wunderground v.1.15,2013-01-22 05:50:00,
2013-01-21 21:51:00,32.3,24.6,30.19,ENE,68,2.0,5.0,73,0.00,,,0.00,Wunderground v.1.15,2013-01-22 05:51:00,
2013-01-21 21:56:00,32.5,24.8,30.19,ENE,68,1.0,5.0,73,0.00,,,0.00,Wunderground v.1.15,2013-01-22 05:56:00,
2013-01-21 21:57:00,32.5,24.8,30.19,NNE,32,1.0,5.0,73,0.00,,,0.00,Wunderground v.1.15,2013-01-22 05:57:00,
2013-01-21 21:58:00,32.5,24.8,30.19,NNE,22,2.0,5.0,73,0.00,,,0.00,Wunderground v.1.15,2013-01-22 05:58:00,
2013-01-21 22:01:00,32.7,24.7,30.19,East,96,2.0,2.0,72,0.00,,,0.00,Wunderground v.1.15,2013-01-22 06:01:00,
2013-01-21 22:03:00,32.7,25.0,30.19,ENE,57,2.0,3.0,73,0.00,,,0.00,Wunderground v.1.15,2013-01-22 06:03:00,
2013-01-21 22:08:00,32.8,24.8,30.19,ENE,67,3.0,4.0,72,0.00,,,0.00,Wunderground v.1.15,2013-01-22 06:08:00,
2013-01-21 22:09:00,32.8,24.8,30.19,NE,44,3.0,4.0,72,0.00,,,0.00,Wunderground v.1.15,2013-01-22 06:09:00,
2013-01-21 22:10:00,32.8,24.8,30.19,NNE,32,3.0,4.0,72,0.00,,,0.00,Wunderground v.1.15,2013-01-22 06:10:00,
2013-01-21 22:14:00,32.8,24.8,30.20,NE,37,2.0,4.0,72,0.00,,,0.00,Wunderground v.1.15,2013-01-22 06:14:00,
2013-01-21 22:16:00,32.7,24.7,30.20,ESE,108,2.0,4.0,72,0.00,,,0.00,Wunderground v.1.15,2013-01-22 06:16:00,
2013-01-21 22:17:00,32.7,24.7,30.20,NE,49,2.0,5.0,72,0.00,,,0.00,Wunderground v.1.15,2013-01-22 06:17:00,
2013-01-21 22:19:00,32.6,24.9,30.20,NNE,32,2.0,5.0,73,0.00,,,0.00,Wunderground v.1.15,2013-01-22 06:19:00,
2013-01-21 22:21:00,32.6,24.9,30.20,WNW,295,2.0,5.0,73,0.00,,,0.00,Wunderground v.1.15,2013-01-22 06:21:00,
2013-01-21 22:25:00,32.5,24.8,30.20,East,85,1.0,3.0,73,0.00,,,0.00,Wunderground v.1.15,2013-01-22 06:25:00,
2013-01-21 22:26:00,32.5,24.8,30.19,NE,55,2.0,4.0,73,0.00,,,0.00,Wunderground v.1.15,2013-01-22 06:26:00,
2013-01-21 22:28:00,32.5,24.8,30.19,NE,48,2.0,5.0,73,0.00,,,0.00,Wunderground v.1.15,2013-01-22 06:28:00,
2013-01-21 22:29:00,32.5,24.8,30.19,ESE,108,2.0,5.0,73,0.00,,,0.00,Wunderground v.1.15,2013-01-22 06:29:00,
2013-01-21 22:32:00,32.5,24.8,30.19,SE,138,2.0,2.0,73,0.00,,,0.00,Wunderground v.1.15,2013-01-22 06:32:00,
2013-01-21 22:34:00,32.4,24.7,30.19,ENE,57,3.0,3.0,73,0.00,,,0.00,Wunderground v.1.15,2013-01-22 06:34:00,
2013-01-21 22:35:00,32.4,24.7,30.19,ENE,78,3.0,5.0,73,0.00,,,0.00,Wunderground v.1.15,2013-01-22 06:35:00,
2013-01-21 22:38:00,32.4,24.7,30.19,ESE,107,3.0,5.0,73,0.00,,,0.00,Wunderground v.1.15,2013-01-22 06:38:00,
2013-01-21 22:40:00,32.3,24.6,30.19,ENE,70,3.0,9.0,73,0.00,,,0.00,Wunderground v.1.15,2013-01-22 06:40:00,
2013-01-21 22:44:00,32.4,24.7,30.19,NE,51,4.0,6.0,73,0.00,,,0.00,Wunderground v.1.15,2013-01-22 06:44:00,
2013-01-21 22:46:00,32.3,24.6,30.19,NE,43,4.0,6.0,73,0.00,,,0.00,Wunderground v.1.15,2013-01-22 06:46:00,
2013-01-21 22:49:00,32.3,24.9,30.19,NE,43,4.0,7.0,74,0.00,,,0.00,Wunderground v.1.15,2013-01-22 06:49:00,
2013-01-21 22:52:00,32.2,24.8,30.19,East,86,4.0,4.0,74,0.00,,,0.00,Wunderground v.1.15,2013-01-22 06:52:00,
2013-01-21 22:53:00,32.2,24.8,30.19,East,100,4.0,5.0,74,0.00,,,0.00,Wunderground v.1.15,2013-01-22 06:53:00,
2013-01-21 22:58:00,32.1,24.7,30.19,NNE,22,4.0,11.0,74,0.00,,,0.00,Wunderground v.1.15,2013-01-22 06:58:00,
2013-01-21 22:59:00,32.1,24.7,30.19,NE,39,4.0,11.0,74,0.00,,,0.00,Wunderground v.1.15,2013-01-22 06:59:00,
2013-01-21 23:01:00,32.1,24.7,30.19,East,99,4.0,4.0,74,0.00,,,0.00,Wunderground v.1.15,2013-01-22 07:01:00,
2013-01-21 23:03:00,32.1,24.7,30.19,NE,47,4.0,5.0,74,0.00,,,0.00,Wunderground v.1.15,2013-01-22 07:03:00,
2013-01-21 23:04:00,32.1,24.7,30.19,NNE,24,4.0,6.0,74,0.00,,,0.00,Wunderground v.1.15,2013-01-22 07:04:00,
2013-01-21 23:06:00,32.1,24.7,30.19,North,355,4.0,6.0,74,0.00,,,0.00,Wunderground v.1.15,2013-01-22 07:06:00,
2013-01-21 23:10:00,32.0,24.6,30.19,East,83,3.0,6.0,74,0.00,,,0.00,Wunderground v.1.15,2013-01-22 07:10:00,
2013-01-21 23:11:00,32.1,24.7,30.19,NE,55,2.0,2.0,74,0.00,,,0.00,Wunderground v.1.15,2013-01-22 07:11:00,
2013-01-21 23:13:00,32.0,24.6,30.19,ENE,63,2.0,4.0,74,0.00,,,0.00,Wunderground v.1.15,2013-01-22 07:13:00,
2013-01-21 23:17:00,32.0,24.6,30.19,ENE,70,1.0,4.0,74,0.00,,,0.00,Wunderground v.1.15,2013-01-22 07:17:00,
2013-01-21 23:20:00,32.0,24.6,30.19,ESE,120,1.0,4.0,74,0.00,,,0.00,Wunderground v.1.15,2013-01-22 07:20:00,
2013-01-21 23:23:00,32.1,24.7,30.19,East,84,1.0,1.0,74,0.00,,,0.00,Wunderground v.1.15,2013-01-22 07:23:00,
2013-01-21 23:24:00,32.1,24.7,30.19,NE,54,1.0,2.0,74,0.00,,,0.00,Wunderground v.1.15,2013-01-22 07:24:00,
2013-01-21 23:26:00,32.1,24.7,30.19,East,85,1.0,2.0,74,0.00,,,0.00,Wunderground v.1.15,2013-01-22 07:26:00,
2013-01-21 23:27:00,32.1,24.7,30.19,East,82,1.0,2.0,74,0.00,,,0.00,Wunderground v.1.15,2013-01-22 07:27:00,
2013-01-21 23:30:00,32.1,24.7,30.19,ENE,63,1.0,2.0,74,0.00,,,0.00,Wunderground v.1.15,2013-01-22 07:30:00,
2013-01-21 23:31:00,32.2,24.8,30.19,NE,54,1.0,2.0,74,0.00,,,0.00,Wunderground v.1.15,2013-01-22 07:31:00,
2013-01-21 23:34:00,32.1,24.4,30.19,ENE,77,1.0,1.0,73,0.00,,,0.00,Wunderground v.1.15,2013-01-22 07:34:00,
2013-01-21 23:35:00,32.1,24.7,30.19,ENE,77,0.0,1.0,74,0.00,,,0.00,Wunderground v.1.15,2013-01-22 07:35:00,
2013-01-21 23:36:00,32.0,24.6,30.19,ENE,77,0.0,1.0,74,0.00,,,0.00,Wunderground v.1.15,2013-01-22 07:36:00,
2013-01-21 23:37:00,32.0,24.6,30.19,ENE,77,0.0,1.0,74,0.00,,,0.00,Wunderground v.1.15,2013-01-22 07:37:00,
2013-01-21 23:40:00,31.8,24.5,30.19,ESE,123,0.0,1.0,74,0.00,,,0.00,Wunderground v.1.15,2013-01-22 07:40:00,
2013-01-21 23:41:00,31.8,24.5,30.19,ESE,123,0.0,0.0,74,0.00,,,0.00,Wunderground v.1.15,2013-01-22 07:41:00,
2013-01-21 23:42:00,31.8,24.5,30.19,ESE,122,0.0,0.0,74,0.00,,,0.00,Wunderground v.1.15,2013-01-22 07:42:00,
2013-01-21 23:44:00,31.7,24.4,30.19,East,79,0.0,1.0,74,0.00,,,0.00,Wunderground v.1.15,2013-01-22 07:44:00,
2013-01-21 23:46:00,31.7,24.4,30.19,East,101,0.0,1.0,74,0.00,,,0.00,Wunderground v.1.15,2013-01-22 07:46:00,
2013-01-21 23:50:00,31.8,24.5,30.19,ENE,74,1.0,5.0,74,0.00,,,0.00,Wunderground v.1.15,2013-01-22 07:50:00,
2013-01-21 23:51:00,31.8,24.5,30.19,ENE,60,1.0,5.0,74,0.00,,,0.00,Wunderground v.1.15,2013-01-22 07:51:00,
2013-01-21 23:52:00,31.8,24.5,30.19,NE,49,1.0,1.0,74,0.00,,,0.00,Wunderground v.1.15,2013-01-22 07:52:00,
2013-01-21 23:56:00,31.9,24.6,30.19,ESE,115,1.0,3.0,74,0.00,,,0.00,Wunderground v.1.15,2013-01-22 07:56:00,
2013-01-21 23:57:00,31.9,24.6,30.19,East,101,1.0,3.0,74,0.00,,,0.00,Wunderground v.1.15,2013-01-22 07:57:00,
2013-01-21 23:58:00,31.9,24.6,30.19,ESE,110,1.0,3.0,74,0.00,,,0.00,Wunderground v.1.15,2013-01-22 07:58:00,